<?xml version="1.0" encoding="UTF-8" standalone="no" ?>
<gpx xmlns="http://www.topografix.com/GPX/1/1" xmlns:xsi="http://www.w3.org/2001/XMLSchema-instance" xsi:schemaLocation="http://www.topografix.com/GPX/1/1 http://www.topografix.com/GPX/1/1/gpx.xsd" version="1.1" creator="VisuGPX - https://www.visugpx.com">
  <metadata>
    <name>CURRENT TRACK- 17 MAR 2020 21-38</name>
    <desc><![CDATA[
CURRENT TRACK- 17 MAR 2020 21-38 trace réalisée HW]]></desc>
  </metadata>
  <trk>
    <name><![CDATA[CURRENT TRACK- 17 MAR 2020 21-38]]></name>
    <trkseg>
      <trkpt lat="46.268" lon="6.25698">
        <ele>277.54</ele>
        <time>2020-03-17T19:38:52Z</time>
      </trkpt>
      <trkpt lat="46.268" lon="6.25699">
        <ele>277.54</ele>
        <time>2020-03-17T19:39:17Z</time>
      </trkpt>
      <trkpt lat="46.26803" lon="6.25705">
        <ele>288.33</ele>
        <time>2020-03-18T10:43:48Z</time>
      </trkpt>
      <trkpt lat="46.26804" lon="6.25701">
        <ele>288.33</ele>
        <time>2020-03-18T10:46:37Z</time>
      </trkpt>
      <trkpt lat="46.26823" lon="6.25706">
        <ele>286.52</ele>
        <time>2020-03-18T11:16:50Z</time>
      </trkpt>
      <trkpt lat="46.26835" lon="6.25632">
        <ele>286.52</ele>
        <time>2020-03-18T11:22:32Z</time>
      </trkpt>
      <trkpt lat="46.26857" lon="6.25587">
        <ele>286.52</ele>
        <time>2020-03-18T11:22:46Z</time>
      </trkpt>
      <trkpt lat="46.26902" lon="6.25616">
        <ele>286.52</ele>
        <time>2020-03-18T11:23:00Z</time>
      </trkpt>
      <trkpt lat="46.26943" lon="6.25649">
        <ele>286.52</ele>
        <time>2020-03-18T11:23:15Z</time>
      </trkpt>
      <trkpt lat="46.26973" lon="6.25695">
        <ele>286.52</ele>
        <time>2020-03-18T11:23:27Z</time>
      </trkpt>
      <trkpt lat="46.27012" lon="6.25729">
        <ele>286.52</ele>
        <time>2020-03-18T11:23:39Z</time>
      </trkpt>
      <trkpt lat="46.27053" lon="6.25763">
        <ele>286.52</ele>
        <time>2020-03-18T11:23:51Z</time>
      </trkpt>
      <trkpt lat="46.27099" lon="6.25784">
        <ele>286.52</ele>
        <time>2020-03-18T11:24:01Z</time>
      </trkpt>
      <trkpt lat="46.27144" lon="6.25806">
        <ele>286.52</ele>
        <time>2020-03-18T11:24:09Z</time>
      </trkpt>
      <trkpt lat="46.2718" lon="6.2579">
        <ele>286.52</ele>
        <time>2020-03-18T11:24:20Z</time>
      </trkpt>
      <trkpt lat="46.27197" lon="6.25728">
        <ele>286.52</ele>
        <time>2020-03-18T11:24:33Z</time>
      </trkpt>
      <trkpt lat="46.27218" lon="6.25661">
        <ele>286.52</ele>
        <time>2020-03-18T11:24:45Z</time>
      </trkpt>
      <trkpt lat="46.27237" lon="6.25597">
        <ele>286.52</ele>
        <time>2020-03-18T11:24:56Z</time>
      </trkpt>
      <trkpt lat="46.27255" lon="6.25533">
        <ele>286.52</ele>
        <time>2020-03-18T11:25:07Z</time>
      </trkpt>
      <trkpt lat="46.27271" lon="6.25469">
        <ele>286.52</ele>
        <time>2020-03-18T11:25:17Z</time>
      </trkpt>
      <trkpt lat="46.27286" lon="6.25405">
        <ele>286.52</ele>
        <time>2020-03-18T11:25:25Z</time>
      </trkpt>
      <trkpt lat="46.27303" lon="6.25339">
        <ele>286.52</ele>
        <time>2020-03-18T11:25:33Z</time>
      </trkpt>
      <trkpt lat="46.27327" lon="6.25285">
        <ele>286.52</ele>
        <time>2020-03-18T11:25:42Z</time>
      </trkpt>
      <trkpt lat="46.2735" lon="6.25223">
        <ele>283.1</ele>
        <time>2020-03-18T11:25:53Z</time>
      </trkpt>
      <trkpt lat="46.27363" lon="6.2516">
        <ele>282.82</ele>
        <time>2020-03-18T11:26:03Z</time>
      </trkpt>
      <trkpt lat="46.27375" lon="6.25091">
        <ele>282.69</ele>
        <time>2020-03-18T11:26:13Z</time>
      </trkpt>
      <trkpt lat="46.2739" lon="6.25021">
        <ele>282.65</ele>
        <time>2020-03-18T11:26:22Z</time>
      </trkpt>
      <trkpt lat="46.27403" lon="6.24956">
        <ele>282.9</ele>
        <time>2020-03-18T11:26:31Z</time>
      </trkpt>
      <trkpt lat="46.27422" lon="6.24898">
        <ele>282.61</ele>
        <time>2020-03-18T11:26:43Z</time>
      </trkpt>
      <trkpt lat="46.27463" lon="6.24864">
        <ele>282.65</ele>
        <time>2020-03-18T11:26:56Z</time>
      </trkpt>
      <trkpt lat="46.2751" lon="6.24843">
        <ele>282.74</ele>
        <time>2020-03-18T11:27:07Z</time>
      </trkpt>
      <trkpt lat="46.27555" lon="6.24813">
        <ele>282.66</ele>
        <time>2020-03-18T11:27:17Z</time>
      </trkpt>
      <trkpt lat="46.27596" lon="6.24786">
        <ele>282.82</ele>
        <time>2020-03-18T11:27:30Z</time>
      </trkpt>
      <trkpt lat="46.27638" lon="6.24759">
        <ele>282.79</ele>
        <time>2020-03-18T11:27:44Z</time>
      </trkpt>
      <trkpt lat="46.27677" lon="6.24728">
        <ele>282.83</ele>
        <time>2020-03-18T11:27:57Z</time>
      </trkpt>
      <trkpt lat="46.27719" lon="6.2476">
        <ele>282.83</ele>
        <time>2020-03-18T11:28:10Z</time>
      </trkpt>
      <trkpt lat="46.27756" lon="6.24807">
        <ele>282.83</ele>
        <time>2020-03-18T11:28:19Z</time>
      </trkpt>
      <trkpt lat="46.27793" lon="6.24842">
        <ele>282.83</ele>
        <time>2020-03-18T11:28:28Z</time>
      </trkpt>
      <trkpt lat="46.27827" lon="6.24796">
        <ele>282.83</ele>
        <time>2020-03-18T11:28:43Z</time>
      </trkpt>
      <trkpt lat="46.2781" lon="6.24819">
        <ele>282.83</ele>
        <time>2020-03-18T11:29:13Z</time>
      </trkpt>
      <trkpt lat="46.27804" lon="6.24878">
        <ele>282.83</ele>
        <time>2020-03-18T11:29:26Z</time>
      </trkpt>
      <trkpt lat="46.27834" lon="6.2493">
        <ele>282.83</ele>
        <time>2020-03-18T11:29:39Z</time>
      </trkpt>
      <trkpt lat="46.27865" lon="6.24911">
        <ele>282.83</ele>
        <time>2020-03-18T11:30:02Z</time>
      </trkpt>
      <trkpt lat="46.27907" lon="6.24871">
        <ele>282.83</ele>
        <time>2020-03-18T11:30:13Z</time>
      </trkpt>
      <trkpt lat="46.27946" lon="6.24825">
        <ele>282.83</ele>
        <time>2020-03-18T11:30:25Z</time>
      </trkpt>
      <trkpt lat="46.27975" lon="6.24767">
        <ele>282.83</ele>
        <time>2020-03-18T11:30:38Z</time>
      </trkpt>
      <trkpt lat="46.28004" lon="6.24708">
        <ele>282.83</ele>
        <time>2020-03-18T11:30:49Z</time>
      </trkpt>
      <trkpt lat="46.28031" lon="6.24651">
        <ele>282.83</ele>
        <time>2020-03-18T11:31:01Z</time>
      </trkpt>
      <trkpt lat="46.28066" lon="6.24594">
        <ele>282.83</ele>
        <time>2020-03-18T11:31:16Z</time>
      </trkpt>
      <trkpt lat="46.28105" lon="6.24533">
        <ele>282.83</ele>
        <time>2020-03-18T11:31:28Z</time>
      </trkpt>
      <trkpt lat="46.28148" lon="6.24484">
        <ele>282.83</ele>
        <time>2020-03-18T11:31:40Z</time>
      </trkpt>
      <trkpt lat="46.28186" lon="6.24473">
        <ele>282.83</ele>
        <time>2020-03-18T11:31:55Z</time>
      </trkpt>
      <trkpt lat="46.2822" lon="6.24526">
        <ele>282.83</ele>
        <time>2020-03-18T11:32:07Z</time>
      </trkpt>
      <trkpt lat="46.28253" lon="6.24578">
        <ele>282.83</ele>
        <time>2020-03-18T11:32:18Z</time>
      </trkpt>
      <trkpt lat="46.28286" lon="6.24626">
        <ele>282.83</ele>
        <time>2020-03-18T11:32:26Z</time>
      </trkpt>
      <trkpt lat="46.2832" lon="6.24675">
        <ele>282.83</ele>
        <time>2020-03-18T11:32:35Z</time>
      </trkpt>
      <trkpt lat="46.28332" lon="6.24694">
        <ele>282.83</ele>
        <time>2020-03-18T11:34:02Z</time>
      </trkpt>
      <trkpt lat="46.28322" lon="6.2476">
        <ele>282.83</ele>
        <time>2020-03-18T11:34:22Z</time>
      </trkpt>
      <trkpt lat="46.28297" lon="6.2482">
        <ele>282.83</ele>
        <time>2020-03-18T11:34:35Z</time>
      </trkpt>
      <trkpt lat="46.28275" lon="6.24878">
        <ele>282.83</ele>
        <time>2020-03-18T11:34:47Z</time>
      </trkpt>
      <trkpt lat="46.28296" lon="6.2493">
        <ele>282.83</ele>
        <time>2020-03-18T11:35:01Z</time>
      </trkpt>
      <trkpt lat="46.28331" lon="6.24977">
        <ele>282.83</ele>
        <time>2020-03-18T11:35:14Z</time>
      </trkpt>
      <trkpt lat="46.28369" lon="6.2502">
        <ele>282.83</ele>
        <time>2020-03-18T11:35:28Z</time>
      </trkpt>
      <trkpt lat="46.28414" lon="6.25045">
        <ele>282.83</ele>
        <time>2020-03-18T11:35:39Z</time>
      </trkpt>
      <trkpt lat="46.28462" lon="6.25062">
        <ele>282.83</ele>
        <time>2020-03-18T11:35:50Z</time>
      </trkpt>
      <trkpt lat="46.28505" lon="6.25089">
        <ele>282.83</ele>
        <time>2020-03-18T11:36:02Z</time>
      </trkpt>
      <trkpt lat="46.28545" lon="6.25125">
        <ele>282.83</ele>
        <time>2020-03-18T11:36:13Z</time>
      </trkpt>
      <trkpt lat="46.28581" lon="6.2517">
        <ele>282.83</ele>
        <time>2020-03-18T11:36:23Z</time>
      </trkpt>
      <trkpt lat="46.28615" lon="6.25221">
        <ele>282.83</ele>
        <time>2020-03-18T11:36:33Z</time>
      </trkpt>
      <trkpt lat="46.28648" lon="6.25268">
        <ele>282.83</ele>
        <time>2020-03-18T11:36:43Z</time>
      </trkpt>
      <trkpt lat="46.28685" lon="6.25312">
        <ele>282.83</ele>
        <time>2020-03-18T11:36:52Z</time>
      </trkpt>
      <trkpt lat="46.28722" lon="6.25358">
        <ele>282.83</ele>
        <time>2020-03-18T11:37:02Z</time>
      </trkpt>
      <trkpt lat="46.28755" lon="6.25404">
        <ele>282.83</ele>
        <time>2020-03-18T11:37:13Z</time>
      </trkpt>
      <trkpt lat="46.28788" lon="6.25454">
        <ele>282.83</ele>
        <time>2020-03-18T11:37:23Z</time>
      </trkpt>
      <trkpt lat="46.28821" lon="6.25507">
        <ele>282.83</ele>
        <time>2020-03-18T11:37:33Z</time>
      </trkpt>
      <trkpt lat="46.28847" lon="6.25561">
        <ele>282.83</ele>
        <time>2020-03-18T11:37:44Z</time>
      </trkpt>
      <trkpt lat="46.2888" lon="6.2561">
        <ele>279.29</ele>
        <time>2020-03-18T11:38:42Z</time>
      </trkpt>
      <trkpt lat="46.28922" lon="6.25648">
        <ele>278.75</ele>
        <time>2020-03-18T11:38:51Z</time>
      </trkpt>
      <trkpt lat="46.28955" lon="6.25632">
        <ele>277.03</ele>
        <time>2020-03-18T11:39:09Z</time>
      </trkpt>
      <trkpt lat="46.28971" lon="6.25573">
        <ele>276.44</ele>
        <time>2020-03-18T11:39:28Z</time>
      </trkpt>
      <trkpt lat="46.29021" lon="6.25566">
        <ele>276.15</ele>
        <time>2020-03-18T11:39:47Z</time>
      </trkpt>
      <trkpt lat="46.29098" lon="6.25564">
        <ele>272.12</ele>
        <time>2020-03-18T11:40:16Z</time>
      </trkpt>
      <trkpt lat="46.29193" lon="6.25567">
        <ele>264.08</ele>
        <time>2020-03-18T11:43:54Z</time>
      </trkpt>
      <trkpt lat="46.29255" lon="6.25537">
        <ele>274.61</ele>
        <time>2020-03-18T11:45:28Z</time>
      </trkpt>
      <trkpt lat="46.29316" lon="6.25534">
        <ele>274.86</ele>
        <time>2020-03-18T11:45:54Z</time>
      </trkpt>
      <trkpt lat="46.29376" lon="6.25548">
        <ele>274.84</ele>
        <time>2020-03-18T11:46:12Z</time>
      </trkpt>
      <trkpt lat="46.29436" lon="6.2558">
        <ele>273.06</ele>
        <time>2020-03-18T11:46:34Z</time>
      </trkpt>
      <trkpt lat="46.29489" lon="6.25577">
        <ele>274.3</ele>
        <time>2020-03-18T11:47:26Z</time>
      </trkpt>
      <trkpt lat="46.29541" lon="6.25595">
        <ele>274.31</ele>
        <time>2020-03-18T11:47:47Z</time>
      </trkpt>
      <trkpt lat="46.29592" lon="6.25609">
        <ele>274.58</ele>
        <time>2020-03-18T11:48:07Z</time>
      </trkpt>
      <trkpt lat="46.2963" lon="6.25651">
        <ele>274.88</ele>
        <time>2020-03-18T11:48:23Z</time>
      </trkpt>
      <trkpt lat="46.29642" lon="6.25684">
        <ele>275.25</ele>
        <time>2020-03-18T11:49:31Z</time>
      </trkpt>
      <trkpt lat="46.29665" lon="6.2564">
        <ele>275.25</ele>
        <time>2020-03-18T11:50:02Z</time>
      </trkpt>
      <trkpt lat="46.29694" lon="6.25588">
        <ele>275.25</ele>
        <time>2020-03-18T11:50:18Z</time>
      </trkpt>
      <trkpt lat="46.29722" lon="6.25537">
        <ele>275.25</ele>
        <time>2020-03-18T11:50:35Z</time>
      </trkpt>
      <trkpt lat="46.29749" lon="6.25485">
        <ele>275.25</ele>
        <time>2020-03-18T11:50:50Z</time>
      </trkpt>
      <trkpt lat="46.29776" lon="6.25424">
        <ele>275.25</ele>
        <time>2020-03-18T11:51:03Z</time>
      </trkpt>
      <trkpt lat="46.2981" lon="6.25374">
        <ele>279.55</ele>
        <time>2020-03-18T11:51:13Z</time>
      </trkpt>
      <trkpt lat="46.29851" lon="6.2532">
        <ele>278.62</ele>
        <time>2020-03-18T11:51:25Z</time>
      </trkpt>
      <trkpt lat="46.2989" lon="6.25267">
        <ele>277.13</ele>
        <time>2020-03-18T11:51:35Z</time>
      </trkpt>
      <trkpt lat="46.29924" lon="6.25219">
        <ele>275.8</ele>
        <time>2020-03-18T11:51:44Z</time>
      </trkpt>
      <trkpt lat="46.29947" lon="6.25165">
        <ele>272.99</ele>
        <time>2020-03-18T11:51:55Z</time>
      </trkpt>
      <trkpt lat="46.2997" lon="6.25102">
        <ele>269.95</ele>
        <time>2020-03-18T11:52:06Z</time>
      </trkpt>
      <trkpt lat="46.29998" lon="6.25046">
        <ele>264.48</ele>
        <time>2020-03-18T11:52:18Z</time>
      </trkpt>
      <trkpt lat="46.30013" lon="6.24983">
        <ele>259.91</ele>
        <time>2020-03-18T11:52:29Z</time>
      </trkpt>
      <trkpt lat="46.30005" lon="6.24907">
        <ele>255.56</ele>
        <time>2020-03-18T11:52:36Z</time>
      </trkpt>
      <trkpt lat="46.30008" lon="6.24838">
        <ele>250.87</ele>
        <time>2020-03-18T11:52:47Z</time>
      </trkpt>
      <trkpt lat="46.30035" lon="6.24782">
        <ele>248.31</ele>
        <time>2020-03-18T11:52:56Z</time>
      </trkpt>
      <trkpt lat="46.30093" lon="6.2475">
        <ele>245.67</ele>
        <time>2020-03-18T11:57:43Z</time>
      </trkpt>
      <trkpt lat="46.30153" lon="6.2476">
        <ele>245.67</ele>
        <time>2020-03-18T11:57:56Z</time>
      </trkpt>
      <trkpt lat="46.30202" lon="6.24772">
        <ele>245.67</ele>
        <time>2020-03-18T11:58:08Z</time>
      </trkpt>
      <trkpt lat="46.30248" lon="6.2474">
        <ele>241.73</ele>
        <time>2020-03-18T11:58:24Z</time>
      </trkpt>
      <trkpt lat="46.30297" lon="6.2477">
        <ele>242.84</ele>
        <time>2020-03-18T11:59:02Z</time>
      </trkpt>
      <trkpt lat="46.30339" lon="6.24802">
        <ele>245.15</ele>
        <time>2020-03-18T11:59:18Z</time>
      </trkpt>
      <trkpt lat="46.30386" lon="6.24834">
        <ele>247.47</ele>
        <time>2020-03-18T12:00:15Z</time>
      </trkpt>
      <trkpt lat="46.30393" lon="6.24885">
        <ele>252.46</ele>
        <time>2020-03-18T12:02:21Z</time>
      </trkpt>
      <trkpt lat="46.3042" lon="6.24938">
        <ele>256.28</ele>
        <time>2020-03-18T12:02:36Z</time>
      </trkpt>
      <trkpt lat="46.30464" lon="6.24995">
        <ele>263.35</ele>
        <time>2020-03-18T12:02:58Z</time>
      </trkpt>
      <trkpt lat="46.30496" lon="6.25045">
        <ele>271.13</ele>
        <time>2020-03-18T12:03:19Z</time>
      </trkpt>
      <trkpt lat="46.30505" lon="6.25121">
        <ele>277.38</ele>
        <time>2020-03-18T12:03:38Z</time>
      </trkpt>
      <trkpt lat="46.30512" lon="6.25186">
        <ele>279.59</ele>
        <time>2020-03-18T12:03:55Z</time>
      </trkpt>
      <trkpt lat="46.30515" lon="6.25252">
        <ele>280.75</ele>
        <time>2020-03-18T12:04:09Z</time>
      </trkpt>
      <trkpt lat="46.3052" lon="6.25321">
        <ele>281.23</ele>
        <time>2020-03-18T12:04:23Z</time>
      </trkpt>
      <trkpt lat="46.3053" lon="6.25386">
        <ele>281.24</ele>
        <time>2020-03-18T12:04:34Z</time>
      </trkpt>
      <trkpt lat="46.30553" lon="6.25442">
        <ele>280.9</ele>
        <time>2020-03-18T12:04:49Z</time>
      </trkpt>
      <trkpt lat="46.3053" lon="6.255">
        <ele>282.03</ele>
        <time>2020-03-18T12:05:05Z</time>
      </trkpt>
      <trkpt lat="46.30502" lon="6.25553">
        <ele>282.55</ele>
        <time>2020-03-18T12:05:15Z</time>
      </trkpt>
      <trkpt lat="46.30474" lon="6.25605">
        <ele>282.59</ele>
        <time>2020-03-18T12:05:27Z</time>
      </trkpt>
      <trkpt lat="46.30446" lon="6.25655">
        <ele>283.36</ele>
        <time>2020-03-18T12:05:43Z</time>
      </trkpt>
      <trkpt lat="46.30406" lon="6.25622">
        <ele>283.37</ele>
        <time>2020-03-18T12:05:57Z</time>
      </trkpt>
      <trkpt lat="46.30367" lon="6.25585">
        <ele>283.34</ele>
        <time>2020-03-18T12:06:11Z</time>
      </trkpt>
      <trkpt lat="46.30393" lon="6.25609">
        <ele>283.61</ele>
        <time>2020-03-18T12:06:39Z</time>
      </trkpt>
      <trkpt lat="46.30431" lon="6.25647">
        <ele>283.95</ele>
        <time>2020-03-18T12:07:01Z</time>
      </trkpt>
      <trkpt lat="46.30469" lon="6.25622">
        <ele>284.19</ele>
        <time>2020-03-18T12:07:14Z</time>
      </trkpt>
      <trkpt lat="46.30487" lon="6.25659">
        <ele>283.83</ele>
        <time>2020-03-18T12:07:30Z</time>
      </trkpt>
      <trkpt lat="46.30462" lon="6.25716">
        <ele>283.55</ele>
        <time>2020-03-18T12:07:44Z</time>
      </trkpt>
      <trkpt lat="46.30437" lon="6.25774">
        <ele>283.28</ele>
        <time>2020-03-18T12:07:56Z</time>
      </trkpt>
      <trkpt lat="46.30412" lon="6.25832">
        <ele>283.05</ele>
        <time>2020-03-18T12:08:10Z</time>
      </trkpt>
      <trkpt lat="46.3042" lon="6.25882">
        <ele>282.8</ele>
        <time>2020-03-18T12:08:41Z</time>
      </trkpt>
      <trkpt lat="46.30465" lon="6.25898">
        <ele>284.62</ele>
        <time>2020-03-18T12:08:55Z</time>
      </trkpt>
      <trkpt lat="46.3051" lon="6.25922">
        <ele>285.13</ele>
        <time>2020-03-18T12:09:09Z</time>
      </trkpt>
      <trkpt lat="46.30554" lon="6.25951">
        <ele>284.74</ele>
        <time>2020-03-18T12:09:24Z</time>
      </trkpt>
      <trkpt lat="46.30593" lon="6.25986">
        <ele>284.36</ele>
        <time>2020-03-18T12:09:38Z</time>
      </trkpt>
      <trkpt lat="46.30633" lon="6.26023">
        <ele>284.3</ele>
        <time>2020-03-18T12:09:52Z</time>
      </trkpt>
      <trkpt lat="46.30674" lon="6.26057">
        <ele>284.39</ele>
        <time>2020-03-18T12:10:06Z</time>
      </trkpt>
      <trkpt lat="46.30712" lon="6.26101">
        <ele>284.54</ele>
        <time>2020-03-18T12:10:21Z</time>
      </trkpt>
      <trkpt lat="46.30745" lon="6.26145">
        <ele>285.37</ele>
        <time>2020-03-18T12:10:38Z</time>
      </trkpt>
      <trkpt lat="46.30742" lon="6.26213">
        <ele>285.91</ele>
        <time>2020-03-18T12:10:52Z</time>
      </trkpt>
      <trkpt lat="46.30744" lon="6.26285">
        <ele>286.31</ele>
        <time>2020-03-18T12:11:04Z</time>
      </trkpt>
      <trkpt lat="46.30753" lon="6.26353">
        <ele>286.84</ele>
        <time>2020-03-18T12:11:15Z</time>
      </trkpt>
      <trkpt lat="46.30757" lon="6.26418">
        <ele>287.04</ele>
        <time>2020-03-18T12:11:28Z</time>
      </trkpt>
      <trkpt lat="46.30749" lon="6.26483">
        <ele>286.77</ele>
        <time>2020-03-18T12:11:41Z</time>
      </trkpt>
      <trkpt lat="46.30738" lon="6.26551">
        <ele>287.08</ele>
        <time>2020-03-18T12:11:52Z</time>
      </trkpt>
      <trkpt lat="46.30728" lon="6.26617">
        <ele>287.22</ele>
        <time>2020-03-18T12:12:03Z</time>
      </trkpt>
      <trkpt lat="46.30718" lon="6.2668">
        <ele>287.16</ele>
        <time>2020-03-18T12:12:18Z</time>
      </trkpt>
      <trkpt lat="46.30763" lon="6.26697">
        <ele>286.72</ele>
        <time>2020-03-18T12:12:56Z</time>
      </trkpt>
      <trkpt lat="46.30808" lon="6.26722">
        <ele>286.72</ele>
        <time>2020-03-18T12:13:08Z</time>
      </trkpt>
      <trkpt lat="46.30851" lon="6.26743">
        <ele>286.72</ele>
        <time>2020-03-18T12:13:19Z</time>
      </trkpt>
      <trkpt lat="46.30898" lon="6.26768">
        <ele>286.72</ele>
        <time>2020-03-18T12:13:30Z</time>
      </trkpt>
      <trkpt lat="46.30941" lon="6.26792">
        <ele>286.72</ele>
        <time>2020-03-18T12:13:40Z</time>
      </trkpt>
      <trkpt lat="46.30986" lon="6.2682">
        <ele>286.72</ele>
        <time>2020-03-18T12:13:50Z</time>
      </trkpt>
      <trkpt lat="46.31027" lon="6.26855">
        <ele>286.72</ele>
        <time>2020-03-18T12:14:00Z</time>
      </trkpt>
      <trkpt lat="46.31066" lon="6.26893">
        <ele>286.72</ele>
        <time>2020-03-18T12:14:11Z</time>
      </trkpt>
      <trkpt lat="46.31107" lon="6.26932">
        <ele>286.72</ele>
        <time>2020-03-18T12:14:23Z</time>
      </trkpt>
      <trkpt lat="46.31144" lon="6.2697">
        <ele>286.72</ele>
        <time>2020-03-18T12:14:34Z</time>
      </trkpt>
      <trkpt lat="46.31181" lon="6.2701">
        <ele>286.72</ele>
        <time>2020-03-18T12:14:45Z</time>
      </trkpt>
      <trkpt lat="46.31219" lon="6.27049">
        <ele>286.72</ele>
        <time>2020-03-18T12:14:56Z</time>
      </trkpt>
      <trkpt lat="46.31255" lon="6.27087">
        <ele>286.72</ele>
        <time>2020-03-18T12:15:08Z</time>
      </trkpt>
      <trkpt lat="46.31292" lon="6.27125">
        <ele>286.72</ele>
        <time>2020-03-18T12:15:21Z</time>
      </trkpt>
      <trkpt lat="46.31332" lon="6.27161">
        <ele>286.72</ele>
        <time>2020-03-18T12:15:33Z</time>
      </trkpt>
      <trkpt lat="46.3136" lon="6.27119">
        <ele>286.72</ele>
        <time>2020-03-18T12:15:54Z</time>
      </trkpt>
      <trkpt lat="46.31381" lon="6.27056">
        <ele>286.72</ele>
        <time>2020-03-18T12:16:04Z</time>
      </trkpt>
      <trkpt lat="46.31402" lon="6.26993">
        <ele>286.72</ele>
        <time>2020-03-18T12:16:14Z</time>
      </trkpt>
      <trkpt lat="46.31422" lon="6.26935">
        <ele>286.72</ele>
        <time>2020-03-18T12:16:26Z</time>
      </trkpt>
      <trkpt lat="46.31449" lon="6.26892">
        <ele>286.72</ele>
        <time>2020-03-18T12:17:42Z</time>
      </trkpt>
      <trkpt lat="46.31483" lon="6.26942">
        <ele>286.72</ele>
        <time>2020-03-18T12:17:58Z</time>
      </trkpt>
      <trkpt lat="46.31528" lon="6.26984">
        <ele>286.72</ele>
        <time>2020-03-18T12:18:07Z</time>
      </trkpt>
      <trkpt lat="46.31555" lon="6.2704">
        <ele>286.72</ele>
        <time>2020-03-18T12:18:16Z</time>
      </trkpt>
      <trkpt lat="46.31568" lon="6.27104">
        <ele>286.72</ele>
        <time>2020-03-18T12:18:30Z</time>
      </trkpt>
      <trkpt lat="46.31579" lon="6.27169">
        <ele>282.67</ele>
        <time>2020-03-18T12:18:44Z</time>
      </trkpt>
      <trkpt lat="46.31592" lon="6.27232">
        <ele>283.88</ele>
        <time>2020-03-18T12:18:58Z</time>
      </trkpt>
      <trkpt lat="46.31607" lon="6.27295">
        <ele>285.16</ele>
        <time>2020-03-18T12:19:11Z</time>
      </trkpt>
      <trkpt lat="46.31621" lon="6.27357">
        <ele>286.56</ele>
        <time>2020-03-18T12:19:24Z</time>
      </trkpt>
      <trkpt lat="46.31647" lon="6.27415">
        <ele>287.04</ele>
        <time>2020-03-18T12:19:37Z</time>
      </trkpt>
      <trkpt lat="46.31676" lon="6.27471">
        <ele>287.63</ele>
        <time>2020-03-18T12:19:50Z</time>
      </trkpt>
      <trkpt lat="46.31704" lon="6.27523">
        <ele>288.46</ele>
        <time>2020-03-18T12:20:02Z</time>
      </trkpt>
      <trkpt lat="46.31738" lon="6.27575">
        <ele>289.15</ele>
        <time>2020-03-18T12:20:16Z</time>
      </trkpt>
      <trkpt lat="46.31774" lon="6.27625">
        <ele>289.54</ele>
        <time>2020-03-18T12:20:30Z</time>
      </trkpt>
      <trkpt lat="46.31814" lon="6.27676">
        <ele>289.45</ele>
        <time>2020-03-18T12:20:45Z</time>
      </trkpt>
      <trkpt lat="46.3186" lon="6.27704">
        <ele>289.82</ele>
        <time>2020-03-18T12:20:57Z</time>
      </trkpt>
      <trkpt lat="46.31909" lon="6.27723">
        <ele>290.59</ele>
        <time>2020-03-18T12:21:10Z</time>
      </trkpt>
      <trkpt lat="46.31942" lon="6.27772">
        <ele>290.79</ele>
        <time>2020-03-18T12:21:24Z</time>
      </trkpt>
      <trkpt lat="46.31973" lon="6.27836">
        <ele>291.73</ele>
        <time>2020-03-18T12:21:42Z</time>
      </trkpt>
      <trkpt lat="46.32007" lon="6.27825">
        <ele>291.91</ele>
        <time>2020-03-18T12:22:21Z</time>
      </trkpt>
      <trkpt lat="46.32044" lon="6.27773">
        <ele>291.48</ele>
        <time>2020-03-18T12:22:30Z</time>
      </trkpt>
      <trkpt lat="46.32076" lon="6.27722">
        <ele>290.11</ele>
        <time>2020-03-18T12:22:37Z</time>
      </trkpt>
      <trkpt lat="46.32114" lon="6.27683">
        <ele>288.58</ele>
        <time>2020-03-18T12:22:44Z</time>
      </trkpt>
      <trkpt lat="46.32157" lon="6.27654">
        <ele>287.09</ele>
        <time>2020-03-18T12:22:53Z</time>
      </trkpt>
      <trkpt lat="46.32203" lon="6.27636">
        <ele>286.93</ele>
        <time>2020-03-18T12:23:05Z</time>
      </trkpt>
      <trkpt lat="46.32252" lon="6.2762">
        <ele>286.88</ele>
        <time>2020-03-18T12:23:16Z</time>
      </trkpt>
      <trkpt lat="46.323" lon="6.27612">
        <ele>287.33</ele>
        <time>2020-03-18T12:23:29Z</time>
      </trkpt>
      <trkpt lat="46.32345" lon="6.27593">
        <ele>287.87</ele>
        <time>2020-03-18T12:23:44Z</time>
      </trkpt>
      <trkpt lat="46.32386" lon="6.27579">
        <ele>288.13</ele>
        <time>2020-03-18T12:23:59Z</time>
      </trkpt>
      <trkpt lat="46.32423" lon="6.27626">
        <ele>288.84</ele>
        <time>2020-03-18T12:24:12Z</time>
      </trkpt>
      <trkpt lat="46.32462" lon="6.27666">
        <ele>289.69</ele>
        <time>2020-03-18T12:24:25Z</time>
      </trkpt>
      <trkpt lat="46.32492" lon="6.27716">
        <ele>289.95</ele>
        <time>2020-03-18T12:24:37Z</time>
      </trkpt>
      <trkpt lat="46.32521" lon="6.27767">
        <ele>290.63</ele>
        <time>2020-03-18T12:24:50Z</time>
      </trkpt>
      <trkpt lat="46.32545" lon="6.27823">
        <ele>291.23</ele>
        <time>2020-03-18T12:25:03Z</time>
      </trkpt>
      <trkpt lat="46.32574" lon="6.27846">
        <ele>292.47</ele>
        <time>2020-03-18T12:25:17Z</time>
      </trkpt>
      <trkpt lat="46.32606" lon="6.27793">
        <ele>292.72</ele>
        <time>2020-03-18T12:25:26Z</time>
      </trkpt>
      <trkpt lat="46.32636" lon="6.27742">
        <ele>292.71</ele>
        <time>2020-03-18T12:25:35Z</time>
      </trkpt>
      <trkpt lat="46.32666" lon="6.27692">
        <ele>292.7</ele>
        <time>2020-03-18T12:25:43Z</time>
      </trkpt>
      <trkpt lat="46.32696" lon="6.27643">
        <ele>292.54</ele>
        <time>2020-03-18T12:25:52Z</time>
      </trkpt>
      <trkpt lat="46.32726" lon="6.27593">
        <ele>292.45</ele>
        <time>2020-03-18T12:26:02Z</time>
      </trkpt>
      <trkpt lat="46.32758" lon="6.27539">
        <ele>292.44</ele>
        <time>2020-03-18T12:26:11Z</time>
      </trkpt>
      <trkpt lat="46.32791" lon="6.27484">
        <ele>291.79</ele>
        <time>2020-03-18T12:26:20Z</time>
      </trkpt>
      <trkpt lat="46.32827" lon="6.27477">
        <ele>290.65</ele>
        <time>2020-03-18T12:26:30Z</time>
      </trkpt>
      <trkpt lat="46.32861" lon="6.27531">
        <ele>290.52</ele>
        <time>2020-03-18T12:26:43Z</time>
      </trkpt>
      <trkpt lat="46.32894" lon="6.27578">
        <ele>290.98</ele>
        <time>2020-03-18T12:26:54Z</time>
      </trkpt>
      <trkpt lat="46.32929" lon="6.27626">
        <ele>291.78</ele>
        <time>2020-03-18T12:27:05Z</time>
      </trkpt>
      <trkpt lat="46.3297" lon="6.27666">
        <ele>292.44</ele>
        <time>2020-03-18T12:27:16Z</time>
      </trkpt>
      <trkpt lat="46.33009" lon="6.27704">
        <ele>292.96</ele>
        <time>2020-03-18T12:27:27Z</time>
      </trkpt>
      <trkpt lat="46.33042" lon="6.27752">
        <ele>293.51</ele>
        <time>2020-03-18T12:27:42Z</time>
      </trkpt>
      <trkpt lat="46.33079" lon="6.27797">
        <ele>293.86</ele>
        <time>2020-03-18T12:27:55Z</time>
      </trkpt>
      <trkpt lat="46.33114" lon="6.27842">
        <ele>294.18</ele>
        <time>2020-03-18T12:28:06Z</time>
      </trkpt>
      <trkpt lat="46.33152" lon="6.27884">
        <ele>294.27</ele>
        <time>2020-03-18T12:28:18Z</time>
      </trkpt>
      <trkpt lat="46.33198" lon="6.27888">
        <ele>293.65</ele>
        <time>2020-03-18T12:28:32Z</time>
      </trkpt>
      <trkpt lat="46.33234" lon="6.27925">
        <ele>293.93</ele>
        <time>2020-03-18T12:28:46Z</time>
      </trkpt>
      <trkpt lat="46.33262" lon="6.27981">
        <ele>295.06</ele>
        <time>2020-03-18T12:29:00Z</time>
      </trkpt>
      <trkpt lat="46.33291" lon="6.28032">
        <ele>296.07</ele>
        <time>2020-03-18T12:29:13Z</time>
      </trkpt>
      <trkpt lat="46.33324" lon="6.28081">
        <ele>297.47</ele>
        <time>2020-03-18T12:29:27Z</time>
      </trkpt>
      <trkpt lat="46.33362" lon="6.28126">
        <ele>298.96</ele>
        <time>2020-03-18T12:29:40Z</time>
      </trkpt>
      <trkpt lat="46.33398" lon="6.28171">
        <ele>300.06</ele>
        <time>2020-03-18T12:29:53Z</time>
      </trkpt>
      <trkpt lat="46.33427" lon="6.28224">
        <ele>300.93</ele>
        <time>2020-03-18T12:30:08Z</time>
      </trkpt>
      <trkpt lat="46.33432" lon="6.28234">
        <ele>301.62</ele>
        <time>2020-03-18T12:37:41Z</time>
      </trkpt>
      <trkpt lat="46.33399" lon="6.28174">
        <ele>301.62</ele>
        <time>2020-03-18T12:37:52Z</time>
      </trkpt>
      <trkpt lat="46.3336" lon="6.28121">
        <ele>301.62</ele>
        <time>2020-03-18T12:38:03Z</time>
      </trkpt>
      <trkpt lat="46.33321" lon="6.2807">
        <ele>301.62</ele>
        <time>2020-03-18T12:38:14Z</time>
      </trkpt>
      <trkpt lat="46.33288" lon="6.28019">
        <ele>301.62</ele>
        <time>2020-03-18T12:38:22Z</time>
      </trkpt>
      <trkpt lat="46.33256" lon="6.27964">
        <ele>301.62</ele>
        <time>2020-03-18T12:38:30Z</time>
      </trkpt>
      <trkpt lat="46.33228" lon="6.27912">
        <ele>301.62</ele>
        <time>2020-03-18T12:38:37Z</time>
      </trkpt>
      <trkpt lat="46.33189" lon="6.27882">
        <ele>301.62</ele>
        <time>2020-03-18T12:38:44Z</time>
      </trkpt>
      <trkpt lat="46.33153" lon="6.27897">
        <ele>294.99</ele>
        <time>2020-03-18T12:38:59Z</time>
      </trkpt>
      <trkpt lat="46.33167" lon="6.27965">
        <ele>295.31</ele>
        <time>2020-03-18T12:39:20Z</time>
      </trkpt>
      <trkpt lat="46.33184" lon="6.28031">
        <ele>296.36</ele>
        <time>2020-03-18T12:39:38Z</time>
      </trkpt>
      <trkpt lat="46.33208" lon="6.28088">
        <ele>297.34</ele>
        <time>2020-03-18T12:39:55Z</time>
      </trkpt>
      <trkpt lat="46.33223" lon="6.28153">
        <ele>298.16</ele>
        <time>2020-03-18T12:40:14Z</time>
      </trkpt>
      <trkpt lat="46.33218" lon="6.28155">
        <ele>299.02</ele>
        <time>2020-03-18T12:41:04Z</time>
      </trkpt>
      <trkpt lat="46.33211" lon="6.2809">
        <ele>298.09</ele>
        <time>2020-03-18T12:41:18Z</time>
      </trkpt>
      <trkpt lat="46.33187" lon="6.28036">
        <ele>297.71</ele>
        <time>2020-03-18T12:41:33Z</time>
      </trkpt>
      <trkpt lat="46.33171" lon="6.27972">
        <ele>296.52</ele>
        <time>2020-03-18T12:41:47Z</time>
      </trkpt>
      <trkpt lat="46.33157" lon="6.27908">
        <ele>295.67</ele>
        <time>2020-03-18T12:41:59Z</time>
      </trkpt>
      <trkpt lat="46.33126" lon="6.27853">
        <ele>295.23</ele>
        <time>2020-03-18T12:42:13Z</time>
      </trkpt>
      <trkpt lat="46.3309" lon="6.27809">
        <ele>295.59</ele>
        <time>2020-03-18T12:42:24Z</time>
      </trkpt>
      <trkpt lat="46.33052" lon="6.27761">
        <ele>295.68</ele>
        <time>2020-03-18T12:42:33Z</time>
      </trkpt>
      <trkpt lat="46.33019" lon="6.27715">
        <ele>295.19</ele>
        <time>2020-03-18T12:42:41Z</time>
      </trkpt>
      <trkpt lat="46.32981" lon="6.27672">
        <ele>294.29</ele>
        <time>2020-03-18T12:42:57Z</time>
      </trkpt>
      <trkpt lat="46.32941" lon="6.27631">
        <ele>294.12</ele>
        <time>2020-03-18T12:43:07Z</time>
      </trkpt>
      <trkpt lat="46.32904" lon="6.27586">
        <ele>293.68</ele>
        <time>2020-03-18T12:43:17Z</time>
      </trkpt>
      <trkpt lat="46.32869" lon="6.27536">
        <ele>293.13</ele>
        <time>2020-03-18T12:43:28Z</time>
      </trkpt>
      <trkpt lat="46.32835" lon="6.27487">
        <ele>292.68</ele>
        <time>2020-03-18T12:43:40Z</time>
      </trkpt>
      <trkpt lat="46.32806" lon="6.27446">
        <ele>292.16</ele>
        <time>2020-03-18T12:43:52Z</time>
      </trkpt>
      <trkpt lat="46.32777" lon="6.27502">
        <ele>292.8</ele>
        <time>2020-03-18T12:44:06Z</time>
      </trkpt>
      <trkpt lat="46.32746" lon="6.27553">
        <ele>293.88</ele>
        <time>2020-03-18T12:44:17Z</time>
      </trkpt>
      <trkpt lat="46.32715" lon="6.27606">
        <ele>294.77</ele>
        <time>2020-03-18T12:44:27Z</time>
      </trkpt>
      <trkpt lat="46.32686" lon="6.27654">
        <ele>295.29</ele>
        <time>2020-03-18T12:44:36Z</time>
      </trkpt>
      <trkpt lat="46.32654" lon="6.27706">
        <ele>295.54</ele>
        <time>2020-03-18T12:44:46Z</time>
      </trkpt>
      <trkpt lat="46.32623" lon="6.27758">
        <ele>295.6</ele>
        <time>2020-03-18T12:44:55Z</time>
      </trkpt>
      <trkpt lat="46.3259" lon="6.27811">
        <ele>296.6</ele>
        <time>2020-03-18T12:45:05Z</time>
      </trkpt>
      <trkpt lat="46.3256" lon="6.27863">
        <ele>296.82</ele>
        <time>2020-03-18T12:45:17Z</time>
      </trkpt>
      <trkpt lat="46.32575" lon="6.27929">
        <ele>296.71</ele>
        <time>2020-03-18T12:45:31Z</time>
      </trkpt>
      <trkpt lat="46.32595" lon="6.27994">
        <ele>297.87</ele>
        <time>2020-03-18T12:45:44Z</time>
      </trkpt>
      <trkpt lat="46.32612" lon="6.28058">
        <ele>298.33</ele>
        <time>2020-03-18T12:45:55Z</time>
      </trkpt>
      <trkpt lat="46.32627" lon="6.2812">
        <ele>299.64</ele>
        <time>2020-03-18T12:46:08Z</time>
      </trkpt>
      <trkpt lat="46.32641" lon="6.28184">
        <ele>301.62</ele>
        <time>2020-03-18T12:46:22Z</time>
      </trkpt>
      <trkpt lat="46.32657" lon="6.2825">
        <ele>302.94</ele>
        <time>2020-03-18T12:46:35Z</time>
      </trkpt>
      <trkpt lat="46.32667" lon="6.2832">
        <ele>303.19</ele>
        <time>2020-03-18T12:46:48Z</time>
      </trkpt>
      <trkpt lat="46.32664" lon="6.28386">
        <ele>303.49</ele>
        <time>2020-03-18T12:47:00Z</time>
      </trkpt>
      <trkpt lat="46.32659" lon="6.28456">
        <ele>304.35</ele>
        <time>2020-03-18T12:47:12Z</time>
      </trkpt>
      <trkpt lat="46.32652" lon="6.28521">
        <ele>305.36</ele>
        <time>2020-03-18T12:47:24Z</time>
      </trkpt>
      <trkpt lat="46.32646" lon="6.28594">
        <ele>305.95</ele>
        <time>2020-03-18T12:47:36Z</time>
      </trkpt>
      <trkpt lat="46.3264" lon="6.28668">
        <ele>305.86</ele>
        <time>2020-03-18T12:47:47Z</time>
      </trkpt>
      <trkpt lat="46.32636" lon="6.28747">
        <ele>305.89</ele>
        <time>2020-03-18T12:47:57Z</time>
      </trkpt>
      <trkpt lat="46.32632" lon="6.28818">
        <ele>305.71</ele>
        <time>2020-03-18T12:48:07Z</time>
      </trkpt>
      <trkpt lat="46.32621" lon="6.28889">
        <ele>305.81</ele>
        <time>2020-03-18T12:48:18Z</time>
      </trkpt>
      <trkpt lat="46.32614" lon="6.28964">
        <ele>305.83</ele>
        <time>2020-03-18T12:48:27Z</time>
      </trkpt>
      <trkpt lat="46.32606" lon="6.2904">
        <ele>305.19</ele>
        <time>2020-03-18T12:48:34Z</time>
      </trkpt>
      <trkpt lat="46.32599" lon="6.29111">
        <ele>304.26</ele>
        <time>2020-03-18T12:48:43Z</time>
      </trkpt>
      <trkpt lat="46.32591" lon="6.29184">
        <ele>303.79</ele>
        <time>2020-03-18T12:48:54Z</time>
      </trkpt>
      <trkpt lat="46.32595" lon="6.2925">
        <ele>303.65</ele>
        <time>2020-03-18T12:49:05Z</time>
      </trkpt>
      <trkpt lat="46.32642" lon="6.29247">
        <ele>303.88</ele>
        <time>2020-03-18T12:49:16Z</time>
      </trkpt>
      <trkpt lat="46.32693" lon="6.29243">
        <ele>304.84</ele>
        <time>2020-03-18T12:49:26Z</time>
      </trkpt>
      <trkpt lat="46.3274" lon="6.29238">
        <ele>305.45</ele>
        <time>2020-03-18T12:49:36Z</time>
      </trkpt>
      <trkpt lat="46.32787" lon="6.29236">
        <ele>305.95</ele>
        <time>2020-03-18T12:49:45Z</time>
      </trkpt>
      <trkpt lat="46.32839" lon="6.29233">
        <ele>306.6</ele>
        <time>2020-03-18T12:49:55Z</time>
      </trkpt>
      <trkpt lat="46.32886" lon="6.29232">
        <ele>307.42</ele>
        <time>2020-03-18T12:50:05Z</time>
      </trkpt>
      <trkpt lat="46.32936" lon="6.29229">
        <ele>308.02</ele>
        <time>2020-03-18T12:50:15Z</time>
      </trkpt>
      <trkpt lat="46.3299" lon="6.29222">
        <ele>308.08</ele>
        <time>2020-03-18T12:50:24Z</time>
      </trkpt>
      <trkpt lat="46.33044" lon="6.29219">
        <ele>307.68</ele>
        <time>2020-03-18T12:50:33Z</time>
      </trkpt>
      <trkpt lat="46.33095" lon="6.29215">
        <ele>307.63</ele>
        <time>2020-03-18T12:50:41Z</time>
      </trkpt>
      <trkpt lat="46.33141" lon="6.29212">
        <ele>307.39</ele>
        <time>2020-03-18T12:50:48Z</time>
      </trkpt>
      <trkpt lat="46.33186" lon="6.29211">
        <ele>307.12</ele>
        <time>2020-03-18T12:50:55Z</time>
      </trkpt>
      <trkpt lat="46.33237" lon="6.29207">
        <ele>306.2</ele>
        <time>2020-03-18T12:51:03Z</time>
      </trkpt>
      <trkpt lat="46.33284" lon="6.29201">
        <ele>305.18</ele>
        <time>2020-03-18T12:51:14Z</time>
      </trkpt>
      <trkpt lat="46.33327" lon="6.29198">
        <ele>304.65</ele>
        <time>2020-03-18T12:52:06Z</time>
      </trkpt>
      <trkpt lat="46.33377" lon="6.29195">
        <ele>304.19</ele>
        <time>2020-03-18T12:52:17Z</time>
      </trkpt>
      <trkpt lat="46.33426" lon="6.29195">
        <ele>304.26</ele>
        <time>2020-03-18T12:52:26Z</time>
      </trkpt>
      <trkpt lat="46.33474" lon="6.29192">
        <ele>304.55</ele>
        <time>2020-03-18T12:52:36Z</time>
      </trkpt>
      <trkpt lat="46.33526" lon="6.29186">
        <ele>304.8</ele>
        <time>2020-03-18T12:52:46Z</time>
      </trkpt>
      <trkpt lat="46.33574" lon="6.29183">
        <ele>305.21</ele>
        <time>2020-03-18T12:52:56Z</time>
      </trkpt>
      <trkpt lat="46.3362" lon="6.29178">
        <ele>305.52</ele>
        <time>2020-03-18T12:53:08Z</time>
      </trkpt>
      <trkpt lat="46.33666" lon="6.29178">
        <ele>305.87</ele>
        <time>2020-03-18T12:53:19Z</time>
      </trkpt>
      <trkpt lat="46.33716" lon="6.29177">
        <ele>306.01</ele>
        <time>2020-03-18T12:53:28Z</time>
      </trkpt>
      <trkpt lat="46.33768" lon="6.29179">
        <ele>305.79</ele>
        <time>2020-03-18T12:53:37Z</time>
      </trkpt>
      <trkpt lat="46.3382" lon="6.29181">
        <ele>305.63</ele>
        <time>2020-03-18T12:53:46Z</time>
      </trkpt>
      <trkpt lat="46.33871" lon="6.29182">
        <ele>304.86</ele>
        <time>2020-03-18T12:53:54Z</time>
      </trkpt>
      <trkpt lat="46.33919" lon="6.29186">
        <ele>304.21</ele>
        <time>2020-03-18T12:54:01Z</time>
      </trkpt>
      <trkpt lat="46.33969" lon="6.2919">
        <ele>303.11</ele>
        <time>2020-03-18T12:54:08Z</time>
      </trkpt>
      <trkpt lat="46.34023" lon="6.29192">
        <ele>301.84</ele>
        <time>2020-03-18T12:54:15Z</time>
      </trkpt>
      <trkpt lat="46.34069" lon="6.29194">
        <ele>300.12</ele>
        <time>2020-03-18T12:54:21Z</time>
      </trkpt>
      <trkpt lat="46.34114" lon="6.29194">
        <ele>298.3</ele>
        <time>2020-03-18T12:54:27Z</time>
      </trkpt>
      <trkpt lat="46.34163" lon="6.29196">
        <ele>296.47</ele>
        <time>2020-03-18T12:54:34Z</time>
      </trkpt>
      <trkpt lat="46.34171" lon="6.29231">
        <ele>293.6</ele>
        <time>2020-03-18T12:54:52Z</time>
      </trkpt>
      <trkpt lat="46.3415" lon="6.29294">
        <ele>294.18</ele>
        <time>2020-03-18T12:55:07Z</time>
      </trkpt>
      <trkpt lat="46.34141" lon="6.29367">
        <ele>295.23</ele>
        <time>2020-03-18T12:55:21Z</time>
      </trkpt>
      <trkpt lat="46.34105" lon="6.29414">
        <ele>296.01</ele>
        <time>2020-03-18T12:55:32Z</time>
      </trkpt>
      <trkpt lat="46.34063" lon="6.29443">
        <ele>297.23</ele>
        <time>2020-03-18T12:55:47Z</time>
      </trkpt>
      <trkpt lat="46.34019" lon="6.29482">
        <ele>297.83</ele>
        <time>2020-03-18T12:56:02Z</time>
      </trkpt>
      <trkpt lat="46.33973" lon="6.29521">
        <ele>298.95</ele>
        <time>2020-03-18T12:56:15Z</time>
      </trkpt>
      <trkpt lat="46.33923" lon="6.29555">
        <ele>300.67</ele>
        <time>2020-03-18T12:56:29Z</time>
      </trkpt>
      <trkpt lat="46.33873" lon="6.29586">
        <ele>301.71</ele>
        <time>2020-03-18T12:56:43Z</time>
      </trkpt>
      <trkpt lat="46.33826" lon="6.29626">
        <ele>302.49</ele>
        <time>2020-03-18T12:56:56Z</time>
      </trkpt>
      <trkpt lat="46.3378" lon="6.29676">
        <ele>304.02</ele>
        <time>2020-03-18T12:57:10Z</time>
      </trkpt>
      <trkpt lat="46.33738" lon="6.29733">
        <ele>305.67</ele>
        <time>2020-03-18T12:57:24Z</time>
      </trkpt>
      <trkpt lat="46.33693" lon="6.29774">
        <ele>306.14</ele>
        <time>2020-03-18T12:57:37Z</time>
      </trkpt>
      <trkpt lat="46.33644" lon="6.29803">
        <ele>306.18</ele>
        <time>2020-03-18T12:57:49Z</time>
      </trkpt>
      <trkpt lat="46.33587" lon="6.2979">
        <ele>306.27</ele>
        <time>2020-03-18T12:58:02Z</time>
      </trkpt>
      <trkpt lat="46.33534" lon="6.29775">
        <ele>306.7</ele>
        <time>2020-03-18T12:58:15Z</time>
      </trkpt>
      <trkpt lat="46.33487" lon="6.29801">
        <ele>307.53</ele>
        <time>2020-03-18T12:58:31Z</time>
      </trkpt>
      <trkpt lat="46.33452" lon="6.29853">
        <ele>307.57</ele>
        <time>2020-03-18T12:58:42Z</time>
      </trkpt>
      <trkpt lat="46.33416" lon="6.299">
        <ele>306.94</ele>
        <time>2020-03-18T12:58:53Z</time>
      </trkpt>
      <trkpt lat="46.33375" lon="6.29933">
        <ele>306.73</ele>
        <time>2020-03-18T12:59:06Z</time>
      </trkpt>
      <trkpt lat="46.33403" lon="6.29984">
        <ele>306.01</ele>
        <time>2020-03-18T12:59:20Z</time>
      </trkpt>
      <trkpt lat="46.33439" lon="6.30024">
        <ele>305.81</ele>
        <time>2020-03-18T12:59:31Z</time>
      </trkpt>
      <trkpt lat="46.33478" lon="6.30058">
        <ele>306.1</ele>
        <time>2020-03-18T13:03:13Z</time>
      </trkpt>
      <trkpt lat="46.33517" lon="6.30096">
        <ele>306.1</ele>
        <time>2020-03-18T13:03:30Z</time>
      </trkpt>
      <trkpt lat="46.33552" lon="6.30141">
        <ele>306.1</ele>
        <time>2020-03-18T13:03:43Z</time>
      </trkpt>
      <trkpt lat="46.33567" lon="6.30207">
        <ele>306.1</ele>
        <time>2020-03-18T13:03:53Z</time>
      </trkpt>
      <trkpt lat="46.33596" lon="6.30256">
        <ele>306.1</ele>
        <time>2020-03-18T13:04:04Z</time>
      </trkpt>
      <trkpt lat="46.33626" lon="6.30304">
        <ele>306.1</ele>
        <time>2020-03-18T13:04:21Z</time>
      </trkpt>
      <trkpt lat="46.33661" lon="6.30377">
        <ele>306.1</ele>
        <time>2020-03-18T13:04:47Z</time>
      </trkpt>
      <trkpt lat="46.33727" lon="6.30474">
        <ele>302.33</ele>
        <time>2020-03-18T13:08:37Z</time>
      </trkpt>
      <trkpt lat="46.33795" lon="6.30486">
        <ele>302.33</ele>
        <time>2020-03-18T13:09:59Z</time>
      </trkpt>
      <trkpt lat="46.33839" lon="6.3055">
        <ele>302.33</ele>
        <time>2020-03-18T13:10:53Z</time>
      </trkpt>
      <trkpt lat="46.33889" lon="6.30607">
        <ele>302.33</ele>
        <time>2020-03-18T13:11:19Z</time>
      </trkpt>
      <trkpt lat="46.33939" lon="6.30681">
        <ele>302.33</ele>
        <time>2020-03-18T13:12:41Z</time>
      </trkpt>
      <trkpt lat="46.33983" lon="6.30743">
        <ele>302.33</ele>
        <time>2020-03-18T13:13:25Z</time>
      </trkpt>
      <trkpt lat="46.34027" lon="6.30818">
        <ele>302.33</ele>
        <time>2020-03-18T13:14:00Z</time>
      </trkpt>
      <trkpt lat="46.34003" lon="6.30901">
        <ele>302.33</ele>
        <time>2020-03-18T13:14:51Z</time>
      </trkpt>
      <trkpt lat="46.33961" lon="6.3094">
        <ele>302.33</ele>
        <time>2020-03-18T13:15:09Z</time>
      </trkpt>
      <trkpt lat="46.33908" lon="6.30987">
        <ele>302.33</ele>
        <time>2020-03-18T13:15:31Z</time>
      </trkpt>
      <trkpt lat="46.33862" lon="6.30939">
        <ele>302.33</ele>
        <time>2020-03-18T13:16:06Z</time>
      </trkpt>
      <trkpt lat="46.33826" lon="6.30891">
        <ele>302.33</ele>
        <time>2020-03-18T13:16:27Z</time>
      </trkpt>
      <trkpt lat="46.3379" lon="6.30841">
        <ele>302.33</ele>
        <time>2020-03-18T13:16:41Z</time>
      </trkpt>
      <trkpt lat="46.33756" lon="6.30793">
        <ele>302.33</ele>
        <time>2020-03-18T13:16:56Z</time>
      </trkpt>
      <trkpt lat="46.33721" lon="6.30746">
        <ele>302.33</ele>
        <time>2020-03-18T13:17:10Z</time>
      </trkpt>
      <trkpt lat="46.33689" lon="6.30695">
        <ele>302.33</ele>
        <time>2020-03-18T13:17:29Z</time>
      </trkpt>
      <trkpt lat="46.3365" lon="6.30659">
        <ele>302.33</ele>
        <time>2020-03-18T13:17:39Z</time>
      </trkpt>
      <trkpt lat="46.33611" lon="6.30624">
        <ele>302.33</ele>
        <time>2020-03-18T13:17:52Z</time>
      </trkpt>
      <trkpt lat="46.33581" lon="6.30561">
        <ele>302.33</ele>
        <time>2020-03-18T13:18:08Z</time>
      </trkpt>
      <trkpt lat="46.33553" lon="6.30487">
        <ele>302.33</ele>
        <time>2020-03-18T13:18:28Z</time>
      </trkpt>
      <trkpt lat="46.33525" lon="6.30428">
        <ele>302.33</ele>
        <time>2020-03-18T13:18:43Z</time>
      </trkpt>
      <trkpt lat="46.33496" lon="6.30375">
        <ele>302.33</ele>
        <time>2020-03-18T13:19:19Z</time>
      </trkpt>
      <trkpt lat="46.33463" lon="6.30327">
        <ele>302.33</ele>
        <time>2020-03-18T13:19:29Z</time>
      </trkpt>
      <trkpt lat="46.33429" lon="6.30282">
        <ele>302.33</ele>
        <time>2020-03-18T13:19:40Z</time>
      </trkpt>
      <trkpt lat="46.33392" lon="6.30237">
        <ele>302.33</ele>
        <time>2020-03-18T13:19:52Z</time>
      </trkpt>
      <trkpt lat="46.33355" lon="6.30199">
        <ele>302.33</ele>
        <time>2020-03-18T13:20:03Z</time>
      </trkpt>
      <trkpt lat="46.33308" lon="6.30189">
        <ele>302.33</ele>
        <time>2020-03-18T13:20:16Z</time>
      </trkpt>
      <trkpt lat="46.33269" lon="6.30157">
        <ele>302.33</ele>
        <time>2020-03-18T13:20:35Z</time>
      </trkpt>
      <trkpt lat="46.33273" lon="6.30102">
        <ele>302.33</ele>
        <time>2020-03-18T13:21:06Z</time>
      </trkpt>
      <trkpt lat="46.33249" lon="6.30062">
        <ele>302.33</ele>
        <time>2020-03-18T13:22:33Z</time>
      </trkpt>
      <trkpt lat="46.33211" lon="6.30017">
        <ele>306.74</ele>
        <time>2020-03-18T13:22:44Z</time>
      </trkpt>
      <trkpt lat="46.33175" lon="6.29972">
        <ele>306.88</ele>
        <time>2020-03-18T13:22:56Z</time>
      </trkpt>
      <trkpt lat="46.3314" lon="6.29929">
        <ele>306.96</ele>
        <time>2020-03-18T13:23:05Z</time>
      </trkpt>
      <trkpt lat="46.33103" lon="6.29884">
        <ele>306.95</ele>
        <time>2020-03-18T13:23:14Z</time>
      </trkpt>
      <trkpt lat="46.33069" lon="6.29843">
        <ele>306.93</ele>
        <time>2020-03-18T13:23:25Z</time>
      </trkpt>
      <trkpt lat="46.33033" lon="6.29799">
        <ele>306.97</ele>
        <time>2020-03-18T13:23:36Z</time>
      </trkpt>
      <trkpt lat="46.32996" lon="6.29753">
        <ele>307</ele>
        <time>2020-03-18T13:23:45Z</time>
      </trkpt>
      <trkpt lat="46.3296" lon="6.2971">
        <ele>307</ele>
        <time>2020-03-18T13:23:55Z</time>
      </trkpt>
      <trkpt lat="46.32924" lon="6.29664">
        <ele>307</ele>
        <time>2020-03-18T13:24:06Z</time>
      </trkpt>
      <trkpt lat="46.32888" lon="6.29621">
        <ele>307</ele>
        <time>2020-03-18T13:24:16Z</time>
      </trkpt>
      <trkpt lat="46.32851" lon="6.29576">
        <ele>307</ele>
        <time>2020-03-18T13:24:25Z</time>
      </trkpt>
      <trkpt lat="46.32815" lon="6.29531">
        <ele>307</ele>
        <time>2020-03-18T13:24:34Z</time>
      </trkpt>
      <trkpt lat="46.3278" lon="6.29489">
        <ele>307</ele>
        <time>2020-03-18T13:24:43Z</time>
      </trkpt>
      <trkpt lat="46.32743" lon="6.29444">
        <ele>307</ele>
        <time>2020-03-18T13:24:52Z</time>
      </trkpt>
      <trkpt lat="46.32707" lon="6.29398">
        <ele>307</ele>
        <time>2020-03-18T13:25:00Z</time>
      </trkpt>
      <trkpt lat="46.32671" lon="6.29353">
        <ele>307</ele>
        <time>2020-03-18T13:25:09Z</time>
      </trkpt>
      <trkpt lat="46.32636" lon="6.2931">
        <ele>307</ele>
        <time>2020-03-18T13:25:18Z</time>
      </trkpt>
      <trkpt lat="46.32603" lon="6.29263">
        <ele>307</ele>
        <time>2020-03-18T13:25:27Z</time>
      </trkpt>
      <trkpt lat="46.32584" lon="6.29237">
        <ele>307</ele>
        <time>2020-03-18T13:27:02Z</time>
      </trkpt>
      <trkpt lat="46.32543" lon="6.29266">
        <ele>307</ele>
        <time>2020-03-18T13:27:13Z</time>
      </trkpt>
      <trkpt lat="46.32495" lon="6.29293">
        <ele>307</ele>
        <time>2020-03-18T13:27:21Z</time>
      </trkpt>
      <trkpt lat="46.32449" lon="6.2932">
        <ele>307</ele>
        <time>2020-03-18T13:27:29Z</time>
      </trkpt>
      <trkpt lat="46.32402" lon="6.29348">
        <ele>307</ele>
        <time>2020-03-18T13:27:37Z</time>
      </trkpt>
      <trkpt lat="46.32354" lon="6.29376">
        <ele>302.58</ele>
        <time>2020-03-18T13:27:45Z</time>
      </trkpt>
      <trkpt lat="46.32309" lon="6.29403">
        <ele>301.06</ele>
        <time>2020-03-18T13:27:53Z</time>
      </trkpt>
      <trkpt lat="46.32264" lon="6.29429">
        <ele>300.13</ele>
        <time>2020-03-18T13:28:02Z</time>
      </trkpt>
      <trkpt lat="46.32219" lon="6.29456">
        <ele>299.8</ele>
        <time>2020-03-18T13:28:10Z</time>
      </trkpt>
      <trkpt lat="46.32174" lon="6.29483">
        <ele>299.5</ele>
        <time>2020-03-18T13:28:18Z</time>
      </trkpt>
      <trkpt lat="46.3213" lon="6.29511">
        <ele>299.35</ele>
        <time>2020-03-18T13:28:26Z</time>
      </trkpt>
      <trkpt lat="46.32085" lon="6.29536">
        <ele>299.2</ele>
        <time>2020-03-18T13:28:34Z</time>
      </trkpt>
      <trkpt lat="46.32038" lon="6.29564">
        <ele>298.67</ele>
        <time>2020-03-18T13:28:42Z</time>
      </trkpt>
      <trkpt lat="46.31991" lon="6.29592">
        <ele>298.29</ele>
        <time>2020-03-18T13:28:50Z</time>
      </trkpt>
      <trkpt lat="46.31945" lon="6.29621">
        <ele>298.11</ele>
        <time>2020-03-18T13:28:58Z</time>
      </trkpt>
      <trkpt lat="46.31899" lon="6.2965">
        <ele>297.65</ele>
        <time>2020-03-18T13:29:06Z</time>
      </trkpt>
      <trkpt lat="46.31853" lon="6.29678">
        <ele>297.27</ele>
        <time>2020-03-18T13:29:14Z</time>
      </trkpt>
      <trkpt lat="46.31808" lon="6.29704">
        <ele>297</ele>
        <time>2020-03-18T13:29:22Z</time>
      </trkpt>
      <trkpt lat="46.31761" lon="6.29732">
        <ele>296.6</ele>
        <time>2020-03-18T13:29:31Z</time>
      </trkpt>
      <trkpt lat="46.31741" lon="6.29781">
        <ele>295.44</ele>
        <time>2020-03-18T13:29:52Z</time>
      </trkpt>
      <trkpt lat="46.31737" lon="6.29849">
        <ele>296.15</ele>
        <time>2020-03-18T13:30:03Z</time>
      </trkpt>
      <trkpt lat="46.31732" lon="6.29917">
        <ele>296.56</ele>
        <time>2020-03-18T13:30:12Z</time>
      </trkpt>
      <trkpt lat="46.31714" lon="6.29979">
        <ele>297.61</ele>
        <time>2020-03-18T13:30:26Z</time>
      </trkpt>
      <trkpt lat="46.31685" lon="6.3003">
        <ele>298.16</ele>
        <time>2020-03-18T13:30:39Z</time>
      </trkpt>
      <trkpt lat="46.31647" lon="6.30074">
        <ele>298.54</ele>
        <time>2020-03-18T13:30:50Z</time>
      </trkpt>
      <trkpt lat="46.31608" lon="6.30119">
        <ele>297.99</ele>
        <time>2020-03-18T13:31:01Z</time>
      </trkpt>
      <trkpt lat="46.31572" lon="6.30159">
        <ele>297.6</ele>
        <time>2020-03-18T13:31:09Z</time>
      </trkpt>
      <trkpt lat="46.31535" lon="6.30202">
        <ele>297.19</ele>
        <time>2020-03-18T13:31:18Z</time>
      </trkpt>
      <trkpt lat="46.31499" lon="6.30248">
        <ele>296.73</ele>
        <time>2020-03-18T13:31:30Z</time>
      </trkpt>
      <trkpt lat="46.31468" lon="6.30299">
        <ele>296.9</ele>
        <time>2020-03-18T13:31:40Z</time>
      </trkpt>
      <trkpt lat="46.31436" lon="6.30349">
        <ele>297.13</ele>
        <time>2020-03-18T13:31:49Z</time>
      </trkpt>
      <trkpt lat="46.31403" lon="6.30397">
        <ele>297.02</ele>
        <time>2020-03-18T13:32:00Z</time>
      </trkpt>
      <trkpt lat="46.3137" lon="6.30448">
        <ele>297.06</ele>
        <time>2020-03-18T13:32:13Z</time>
      </trkpt>
      <trkpt lat="46.31334" lon="6.30499">
        <ele>296.98</ele>
        <time>2020-03-18T13:32:24Z</time>
      </trkpt>
      <trkpt lat="46.31298" lon="6.30555">
        <ele>296.79</ele>
        <time>2020-03-18T13:32:33Z</time>
      </trkpt>
      <trkpt lat="46.31274" lon="6.3061">
        <ele>296.98</ele>
        <time>2020-03-18T13:32:41Z</time>
      </trkpt>
      <trkpt lat="46.31248" lon="6.30661">
        <ele>296.81</ele>
        <time>2020-03-18T13:32:52Z</time>
      </trkpt>
      <trkpt lat="46.31223" lon="6.30716">
        <ele>296.81</ele>
        <time>2020-03-18T13:33:02Z</time>
      </trkpt>
      <trkpt lat="46.31196" lon="6.30769">
        <ele>296.81</ele>
        <time>2020-03-18T13:33:11Z</time>
      </trkpt>
      <trkpt lat="46.31154" lon="6.30811">
        <ele>296.81</ele>
        <time>2020-03-18T13:33:20Z</time>
      </trkpt>
      <trkpt lat="46.31116" lon="6.3085">
        <ele>296.81</ele>
        <time>2020-03-18T13:33:29Z</time>
      </trkpt>
      <trkpt lat="46.31099" lon="6.30909">
        <ele>296.81</ele>
        <time>2020-03-18T13:33:40Z</time>
      </trkpt>
      <trkpt lat="46.31091" lon="6.30975">
        <ele>296.81</ele>
        <time>2020-03-18T13:33:54Z</time>
      </trkpt>
      <trkpt lat="46.31078" lon="6.31039">
        <ele>296.81</ele>
        <time>2020-03-18T13:34:10Z</time>
      </trkpt>
      <trkpt lat="46.31064" lon="6.31106">
        <ele>296.81</ele>
        <time>2020-03-18T13:34:22Z</time>
      </trkpt>
      <trkpt lat="46.31083" lon="6.3116">
        <ele>296.81</ele>
        <time>2020-03-18T13:34:34Z</time>
      </trkpt>
      <trkpt lat="46.31126" lon="6.3119">
        <ele>296.81</ele>
        <time>2020-03-18T13:34:44Z</time>
      </trkpt>
      <trkpt lat="46.31152" lon="6.31203">
        <ele>299.38</ele>
        <time>2020-03-18T13:35:00Z</time>
      </trkpt>
      <trkpt lat="46.31108" lon="6.31173">
        <ele>298.65</ele>
        <time>2020-03-18T13:35:12Z</time>
      </trkpt>
      <trkpt lat="46.31067" lon="6.31137">
        <ele>299.55</ele>
        <time>2020-03-18T13:35:22Z</time>
      </trkpt>
      <trkpt lat="46.31072" lon="6.31073">
        <ele>300.63</ele>
        <time>2020-03-18T13:35:33Z</time>
      </trkpt>
      <trkpt lat="46.31069" lon="6.31019">
        <ele>300.92</ele>
        <time>2020-03-18T13:35:46Z</time>
      </trkpt>
      <trkpt lat="46.31024" lon="6.31001">
        <ele>300.95</ele>
        <time>2020-03-18T13:35:57Z</time>
      </trkpt>
      <trkpt lat="46.3098" lon="6.30982">
        <ele>301.56</ele>
        <time>2020-03-18T13:36:07Z</time>
      </trkpt>
      <trkpt lat="46.30958" lon="6.31036">
        <ele>301.81</ele>
        <time>2020-03-18T13:59:40Z</time>
      </trkpt>
      <trkpt lat="46.30935" lon="6.31099">
        <ele>301.81</ele>
        <time>2020-03-18T13:59:54Z</time>
      </trkpt>
      <trkpt lat="46.30904" lon="6.31151">
        <ele>301.81</ele>
        <time>2020-03-18T14:00:07Z</time>
      </trkpt>
      <trkpt lat="46.30875" lon="6.31199">
        <ele>301.81</ele>
        <time>2020-03-18T14:00:22Z</time>
      </trkpt>
      <trkpt lat="46.30841" lon="6.31251">
        <ele>301.81</ele>
        <time>2020-03-18T14:00:33Z</time>
      </trkpt>
      <trkpt lat="46.30806" lon="6.31302">
        <ele>301.81</ele>
        <time>2020-03-18T14:00:44Z</time>
      </trkpt>
      <trkpt lat="46.30773" lon="6.31352">
        <ele>301.81</ele>
        <time>2020-03-18T14:00:55Z</time>
      </trkpt>
      <trkpt lat="46.30741" lon="6.31398">
        <ele>301.81</ele>
        <time>2020-03-18T14:01:06Z</time>
      </trkpt>
      <trkpt lat="46.30712" lon="6.31447">
        <ele>304.95</ele>
        <time>2020-03-18T14:01:17Z</time>
      </trkpt>
      <trkpt lat="46.3068" lon="6.31495">
        <ele>305.21</ele>
        <time>2020-03-18T14:01:28Z</time>
      </trkpt>
      <trkpt lat="46.3065" lon="6.31545">
        <ele>305.83</ele>
        <time>2020-03-18T14:01:39Z</time>
      </trkpt>
      <trkpt lat="46.30615" lon="6.31588">
        <ele>306.36</ele>
        <time>2020-03-18T14:01:51Z</time>
      </trkpt>
      <trkpt lat="46.30571" lon="6.31588">
        <ele>307.25</ele>
        <time>2020-03-18T14:02:06Z</time>
      </trkpt>
      <trkpt lat="46.30565" lon="6.31656">
        <ele>308.07</ele>
        <time>2020-03-18T14:02:21Z</time>
      </trkpt>
      <trkpt lat="46.30561" lon="6.31721">
        <ele>308.77</ele>
        <time>2020-03-18T14:02:32Z</time>
      </trkpt>
      <trkpt lat="46.30557" lon="6.31788">
        <ele>309.33</ele>
        <time>2020-03-18T14:02:44Z</time>
      </trkpt>
      <trkpt lat="46.30554" lon="6.31853">
        <ele>310.1</ele>
        <time>2020-03-18T14:02:56Z</time>
      </trkpt>
      <trkpt lat="46.30537" lon="6.31906">
        <ele>311.01</ele>
        <time>2020-03-18T14:03:10Z</time>
      </trkpt>
      <trkpt lat="46.3051" lon="6.31852">
        <ele>312.38</ele>
        <time>2020-03-18T14:03:24Z</time>
      </trkpt>
      <trkpt lat="46.30481" lon="6.31794">
        <ele>313.34</ele>
        <time>2020-03-18T14:03:36Z</time>
      </trkpt>
      <trkpt lat="46.30449" lon="6.31747">
        <ele>313.55</ele>
        <time>2020-03-18T14:03:47Z</time>
      </trkpt>
      <trkpt lat="46.30415" lon="6.31704">
        <ele>313.89</ele>
        <time>2020-03-18T14:04:01Z</time>
      </trkpt>
      <trkpt lat="46.30378" lon="6.31663">
        <ele>315.58</ele>
        <time>2020-03-18T14:04:15Z</time>
      </trkpt>
      <trkpt lat="46.30343" lon="6.31617">
        <ele>317.57</ele>
        <time>2020-03-18T14:04:29Z</time>
      </trkpt>
      <trkpt lat="46.30313" lon="6.31565">
        <ele>318.41</ele>
        <time>2020-03-18T14:04:44Z</time>
      </trkpt>
      <trkpt lat="46.30284" lon="6.31513">
        <ele>318.89</ele>
        <time>2020-03-18T14:04:57Z</time>
      </trkpt>
      <trkpt lat="46.30253" lon="6.31464">
        <ele>318.83</ele>
        <time>2020-03-18T14:05:09Z</time>
      </trkpt>
      <trkpt lat="46.30237" lon="6.31398">
        <ele>319.06</ele>
        <time>2020-03-18T14:05:23Z</time>
      </trkpt>
      <trkpt lat="46.30216" lon="6.31344">
        <ele>316.87</ele>
        <time>2020-03-18T14:05:32Z</time>
      </trkpt>
      <trkpt lat="46.30176" lon="6.31371">
        <ele>315.9</ele>
        <time>2020-03-18T14:05:46Z</time>
      </trkpt>
      <trkpt lat="46.30148" lon="6.31419">
        <ele>318.3</ele>
        <time>2020-03-18T14:06:30Z</time>
      </trkpt>
      <trkpt lat="46.30117" lon="6.31467">
        <ele>319.59</ele>
        <time>2020-03-18T14:07:02Z</time>
      </trkpt>
      <trkpt lat="46.30088" lon="6.31501">
        <ele>320.78</ele>
        <time>2020-03-18T14:07:51Z</time>
      </trkpt>
      <trkpt lat="46.30052" lon="6.3147">
        <ele>321.22</ele>
        <time>2020-03-18T14:08:07Z</time>
      </trkpt>
      <trkpt lat="46.30017" lon="6.31426">
        <ele>323.38</ele>
        <time>2020-03-18T14:08:23Z</time>
      </trkpt>
      <trkpt lat="46.29973" lon="6.31429">
        <ele>327.72</ele>
        <time>2020-03-18T14:09:44Z</time>
      </trkpt>
      <trkpt lat="46.29943" lon="6.31483">
        <ele>330.97</ele>
        <time>2020-03-18T14:10:03Z</time>
      </trkpt>
      <trkpt lat="46.29922" lon="6.31539">
        <ele>336.62</ele>
        <time>2020-03-18T14:10:24Z</time>
      </trkpt>
      <trkpt lat="46.299" lon="6.31591">
        <ele>341.94</ele>
        <time>2020-03-18T14:10:47Z</time>
      </trkpt>
      <trkpt lat="46.2986" lon="6.31563">
        <ele>343.42</ele>
        <time>2020-03-18T14:11:06Z</time>
      </trkpt>
      <trkpt lat="46.29818" lon="6.31529">
        <ele>342.66</ele>
        <time>2020-03-18T14:11:19Z</time>
      </trkpt>
      <trkpt lat="46.29777" lon="6.315">
        <ele>341.96</ele>
        <time>2020-03-18T14:11:37Z</time>
      </trkpt>
      <trkpt lat="46.29735" lon="6.31471">
        <ele>344.52</ele>
        <time>2020-03-18T14:11:54Z</time>
      </trkpt>
      <trkpt lat="46.29697" lon="6.31434">
        <ele>345.94</ele>
        <time>2020-03-18T14:12:10Z</time>
      </trkpt>
      <trkpt lat="46.29657" lon="6.31396">
        <ele>345.43</ele>
        <time>2020-03-18T14:12:27Z</time>
      </trkpt>
      <trkpt lat="46.29667" lon="6.31335">
        <ele>343.81</ele>
        <time>2020-03-18T14:12:40Z</time>
      </trkpt>
      <trkpt lat="46.29632" lon="6.31292">
        <ele>340.86</ele>
        <time>2020-03-18T14:12:52Z</time>
      </trkpt>
      <trkpt lat="46.29591" lon="6.31259">
        <ele>339.85</ele>
        <time>2020-03-18T14:13:04Z</time>
      </trkpt>
      <trkpt lat="46.2955" lon="6.31244">
        <ele>338.2</ele>
        <time>2020-03-18T14:13:18Z</time>
      </trkpt>
      <trkpt lat="46.29523" lon="6.31212">
        <ele>337.6</ele>
        <time>2020-03-18T14:15:09Z</time>
      </trkpt>
      <trkpt lat="46.29489" lon="6.3118">
        <ele>337.6</ele>
        <time>2020-03-18T14:15:22Z</time>
      </trkpt>
      <trkpt lat="46.29446" lon="6.31151">
        <ele>337.6</ele>
        <time>2020-03-18T14:15:39Z</time>
      </trkpt>
      <trkpt lat="46.29404" lon="6.31125">
        <ele>337.6</ele>
        <time>2020-03-18T14:15:54Z</time>
      </trkpt>
      <trkpt lat="46.2936" lon="6.31104">
        <ele>337.6</ele>
        <time>2020-03-18T14:16:08Z</time>
      </trkpt>
      <trkpt lat="46.29314" lon="6.31086">
        <ele>340.43</ele>
        <time>2020-03-18T14:18:09Z</time>
      </trkpt>
      <trkpt lat="46.2927" lon="6.31069">
        <ele>340.43</ele>
        <time>2020-03-18T14:18:27Z</time>
      </trkpt>
      <trkpt lat="46.29224" lon="6.31058">
        <ele>340.43</ele>
        <time>2020-03-18T14:18:43Z</time>
      </trkpt>
      <trkpt lat="46.29188" lon="6.31026">
        <ele>340.43</ele>
        <time>2020-03-18T14:19:01Z</time>
      </trkpt>
      <trkpt lat="46.29162" lon="6.31031">
        <ele>340.43</ele>
        <time>2020-03-18T14:20:48Z</time>
      </trkpt>
      <trkpt lat="46.29114" lon="6.31038">
        <ele>340.43</ele>
        <time>2020-03-18T14:21:02Z</time>
      </trkpt>
      <trkpt lat="46.2907" lon="6.31024">
        <ele>340.43</ele>
        <time>2020-03-18T14:21:20Z</time>
      </trkpt>
      <trkpt lat="46.29025" lon="6.31011">
        <ele>340.43</ele>
        <time>2020-03-18T14:21:34Z</time>
      </trkpt>
      <trkpt lat="46.28978" lon="6.30996">
        <ele>345.46</ele>
        <time>2020-03-18T14:21:49Z</time>
      </trkpt>
      <trkpt lat="46.28973" lon="6.31001">
        <ele>346.07</ele>
        <time>2020-03-18T14:22:05Z</time>
      </trkpt>
      <trkpt lat="46.29019" lon="6.31013">
        <ele>345.96</ele>
        <time>2020-03-18T14:22:17Z</time>
      </trkpt>
      <trkpt lat="46.29064" lon="6.31023">
        <ele>345.82</ele>
        <time>2020-03-18T14:22:29Z</time>
      </trkpt>
      <trkpt lat="46.29109" lon="6.31025">
        <ele>344.74</ele>
        <time>2020-03-18T14:22:40Z</time>
      </trkpt>
      <trkpt lat="46.29138" lon="6.30968">
        <ele>342.19</ele>
        <time>2020-03-18T14:22:52Z</time>
      </trkpt>
      <trkpt lat="46.2917" lon="6.30914">
        <ele>339.22</ele>
        <time>2020-03-18T14:23:04Z</time>
      </trkpt>
      <trkpt lat="46.29192" lon="6.30858">
        <ele>338.03</ele>
        <time>2020-03-18T14:23:13Z</time>
      </trkpt>
      <trkpt lat="46.29213" lon="6.30799">
        <ele>336.11</ele>
        <time>2020-03-18T14:23:21Z</time>
      </trkpt>
      <trkpt lat="46.29224" lon="6.30736">
        <ele>334.21</ele>
        <time>2020-03-18T14:23:30Z</time>
      </trkpt>
      <trkpt lat="46.29188" lon="6.30692">
        <ele>333.18</ele>
        <time>2020-03-18T14:23:42Z</time>
      </trkpt>
      <trkpt lat="46.29158" lon="6.30636">
        <ele>332.6</ele>
        <time>2020-03-18T14:23:53Z</time>
      </trkpt>
      <trkpt lat="46.29126" lon="6.30585">
        <ele>331.62</ele>
        <time>2020-03-18T14:24:01Z</time>
      </trkpt>
      <trkpt lat="46.29086" lon="6.3058">
        <ele>329.94</ele>
        <time>2020-03-18T14:24:09Z</time>
      </trkpt>
      <trkpt lat="46.29048" lon="6.30601">
        <ele>329.99</ele>
        <time>2020-03-18T14:24:21Z</time>
      </trkpt>
      <trkpt lat="46.2901" lon="6.30554">
        <ele>331.38</ele>
        <time>2020-03-18T14:24:32Z</time>
      </trkpt>
      <trkpt lat="46.28975" lon="6.30511">
        <ele>332.14</ele>
        <time>2020-03-18T14:24:42Z</time>
      </trkpt>
      <trkpt lat="46.28938" lon="6.30467">
        <ele>333.04</ele>
        <time>2020-03-18T14:24:54Z</time>
      </trkpt>
      <trkpt lat="46.28909" lon="6.30417">
        <ele>334.03</ele>
        <time>2020-03-18T14:25:10Z</time>
      </trkpt>
      <trkpt lat="46.28892" lon="6.30351">
        <ele>332.3</ele>
        <time>2020-03-18T14:25:29Z</time>
      </trkpt>
      <trkpt lat="46.28878" lon="6.30286">
        <ele>328.74</ele>
        <time>2020-03-18T14:25:46Z</time>
      </trkpt>
      <trkpt lat="46.28864" lon="6.30218">
        <ele>325.65</ele>
        <time>2020-03-18T14:26:05Z</time>
      </trkpt>
      <trkpt lat="46.28862" lon="6.30156">
        <ele>321.9</ele>
        <time>2020-03-18T14:26:26Z</time>
      </trkpt>
      <trkpt lat="46.28867" lon="6.30093">
        <ele>319.03</ele>
        <time>2020-03-18T14:26:52Z</time>
      </trkpt>
      <trkpt lat="46.28858" lon="6.30031">
        <ele>317.53</ele>
        <time>2020-03-18T14:27:17Z</time>
      </trkpt>
      <trkpt lat="46.28882" lon="6.29964">
        <ele>317.26</ele>
        <time>2020-03-18T14:27:29Z</time>
      </trkpt>
      <trkpt lat="46.289" lon="6.299">
        <ele>317.2</ele>
        <time>2020-03-18T14:27:41Z</time>
      </trkpt>
      <trkpt lat="46.28907" lon="6.29838">
        <ele>317.22</ele>
        <time>2020-03-18T14:27:58Z</time>
      </trkpt>
      <trkpt lat="46.28919" lon="6.29773">
        <ele>317.56</ele>
        <time>2020-03-18T14:28:10Z</time>
      </trkpt>
      <trkpt lat="46.28928" lon="6.2971">
        <ele>317.1</ele>
        <time>2020-03-18T14:28:23Z</time>
      </trkpt>
      <trkpt lat="46.28928" lon="6.29718">
        <ele>317.29</ele>
        <time>2020-03-18T14:28:44Z</time>
      </trkpt>
      <trkpt lat="46.28917" lon="6.29786">
        <ele>317.29</ele>
        <time>2020-03-18T14:28:55Z</time>
      </trkpt>
      <trkpt lat="46.28903" lon="6.29849">
        <ele>317.29</ele>
        <time>2020-03-18T14:29:07Z</time>
      </trkpt>
      <trkpt lat="46.28867" lon="6.29808">
        <ele>317.29</ele>
        <time>2020-03-18T14:29:21Z</time>
      </trkpt>
      <trkpt lat="46.28831" lon="6.2976">
        <ele>317.29</ele>
        <time>2020-03-18T14:29:35Z</time>
      </trkpt>
      <trkpt lat="46.28796" lon="6.29713">
        <ele>317.29</ele>
        <time>2020-03-18T14:29:44Z</time>
      </trkpt>
      <trkpt lat="46.2876" lon="6.29668">
        <ele>317.29</ele>
        <time>2020-03-18T14:29:54Z</time>
      </trkpt>
      <trkpt lat="46.28727" lon="6.29623">
        <ele>317.29</ele>
        <time>2020-03-18T14:30:05Z</time>
      </trkpt>
      <trkpt lat="46.28691" lon="6.29577">
        <ele>317.29</ele>
        <time>2020-03-18T14:30:15Z</time>
      </trkpt>
      <trkpt lat="46.28653" lon="6.2953">
        <ele>317.29</ele>
        <time>2020-03-18T14:30:27Z</time>
      </trkpt>
      <trkpt lat="46.28614" lon="6.29482">
        <ele>317.29</ele>
        <time>2020-03-18T14:30:38Z</time>
      </trkpt>
      <trkpt lat="46.28571" lon="6.29438">
        <ele>317.29</ele>
        <time>2020-03-18T14:30:49Z</time>
      </trkpt>
      <trkpt lat="46.28529" lon="6.29398">
        <ele>317.29</ele>
        <time>2020-03-18T14:30:58Z</time>
      </trkpt>
      <trkpt lat="46.2852" lon="6.29328">
        <ele>317.29</ele>
        <time>2020-03-18T14:31:12Z</time>
      </trkpt>
      <trkpt lat="46.28491" lon="6.29269">
        <ele>317.29</ele>
        <time>2020-03-18T14:31:24Z</time>
      </trkpt>
      <trkpt lat="46.28451" lon="6.29218">
        <ele>317.29</ele>
        <time>2020-03-18T14:31:40Z</time>
      </trkpt>
      <trkpt lat="46.28402" lon="6.29193">
        <ele>317.29</ele>
        <time>2020-03-18T14:31:56Z</time>
      </trkpt>
      <trkpt lat="46.2835" lon="6.29138">
        <ele>317.29</ele>
        <time>2020-03-18T14:32:19Z</time>
      </trkpt>
      <trkpt lat="46.283" lon="6.29097">
        <ele>317.29</ele>
        <time>2020-03-18T14:32:35Z</time>
      </trkpt>
      <trkpt lat="46.28251" lon="6.29055">
        <ele>317.29</ele>
        <time>2020-03-18T14:32:56Z</time>
      </trkpt>
      <trkpt lat="46.28205" lon="6.29018">
        <ele>317.29</ele>
        <time>2020-03-18T14:33:09Z</time>
      </trkpt>
      <trkpt lat="46.28163" lon="6.28983">
        <ele>317.29</ele>
        <time>2020-03-18T14:33:25Z</time>
      </trkpt>
      <trkpt lat="46.28107" lon="6.28936">
        <ele>317.29</ele>
        <time>2020-03-18T14:34:44Z</time>
      </trkpt>
      <trkpt lat="46.28069" lon="6.2888">
        <ele>317.29</ele>
        <time>2020-03-18T14:35:18Z</time>
      </trkpt>
      <trkpt lat="46.28022" lon="6.28819">
        <ele>317.29</ele>
        <time>2020-03-18T14:37:04Z</time>
      </trkpt>
      <trkpt lat="46.28006" lon="6.28758">
        <ele>317.29</ele>
        <time>2020-03-18T14:38:39Z</time>
      </trkpt>
      <trkpt lat="46.28009" lon="6.28668">
        <ele>317.29</ele>
        <time>2020-03-18T14:40:12Z</time>
      </trkpt>
      <trkpt lat="46.2805" lon="6.28601">
        <ele>317.29</ele>
        <time>2020-03-18T14:41:14Z</time>
      </trkpt>
      <trkpt lat="46.27999" lon="6.28539">
        <ele>317.29</ele>
        <time>2020-03-18T14:42:16Z</time>
      </trkpt>
      <trkpt lat="46.27962" lon="6.28473">
        <ele>317.29</ele>
        <time>2020-03-18T14:42:34Z</time>
      </trkpt>
      <trkpt lat="46.27933" lon="6.2838">
        <ele>317.29</ele>
        <time>2020-03-18T14:46:17Z</time>
      </trkpt>
      <trkpt lat="46.27911" lon="6.2832">
        <ele>317.29</ele>
        <time>2020-03-18T14:46:41Z</time>
      </trkpt>
      <trkpt lat="46.27891" lon="6.28246">
        <ele>317.29</ele>
        <time>2020-03-18T14:47:03Z</time>
      </trkpt>
      <trkpt lat="46.27866" lon="6.28166">
        <ele>317.29</ele>
        <time>2020-03-18T14:47:25Z</time>
      </trkpt>
      <trkpt lat="46.27854" lon="6.28095">
        <ele>317.29</ele>
        <time>2020-03-18T14:47:43Z</time>
      </trkpt>
      <trkpt lat="46.27824" lon="6.28035">
        <ele>317.29</ele>
        <time>2020-03-18T14:48:02Z</time>
      </trkpt>
      <trkpt lat="46.27785" lon="6.27975">
        <ele>317.29</ele>
        <time>2020-03-18T14:48:27Z</time>
      </trkpt>
      <trkpt lat="46.27749" lon="6.27912">
        <ele>317.29</ele>
        <time>2020-03-18T14:48:47Z</time>
      </trkpt>
      <trkpt lat="46.27716" lon="6.27849">
        <ele>320.77</ele>
        <time>2020-03-18T14:49:08Z</time>
      </trkpt>
      <trkpt lat="46.27705" lon="6.27771">
        <ele>320.71</ele>
        <time>2020-03-18T14:49:25Z</time>
      </trkpt>
      <trkpt lat="46.27685" lon="6.27702">
        <ele>320.44</ele>
        <time>2020-03-18T14:49:37Z</time>
      </trkpt>
      <trkpt lat="46.27666" lon="6.27629">
        <ele>319.49</ele>
        <time>2020-03-18T14:49:53Z</time>
      </trkpt>
      <trkpt lat="46.27657" lon="6.27561">
        <ele>319.09</ele>
        <time>2020-03-18T14:50:06Z</time>
      </trkpt>
      <trkpt lat="46.27646" lon="6.27495">
        <ele>318.82</ele>
        <time>2020-03-18T14:50:19Z</time>
      </trkpt>
      <trkpt lat="46.27643" lon="6.2743">
        <ele>318.5</ele>
        <time>2020-03-18T14:50:34Z</time>
      </trkpt>
      <trkpt lat="46.27655" lon="6.27358">
        <ele>318.15</ele>
        <time>2020-03-18T14:50:50Z</time>
      </trkpt>
      <trkpt lat="46.27673" lon="6.27289">
        <ele>317.35</ele>
        <time>2020-03-18T14:51:26Z</time>
      </trkpt>
      <trkpt lat="46.27697" lon="6.27221">
        <ele>317.05</ele>
        <time>2020-03-18T14:51:42Z</time>
      </trkpt>
      <trkpt lat="46.27723" lon="6.27157">
        <ele>315.65</ele>
        <time>2020-03-18T14:51:58Z</time>
      </trkpt>
      <trkpt lat="46.27743" lon="6.27093">
        <ele>315.08</ele>
        <time>2020-03-18T14:52:10Z</time>
      </trkpt>
      <trkpt lat="46.27748" lon="6.27023">
        <ele>314.1</ele>
        <time>2020-03-18T14:52:24Z</time>
      </trkpt>
      <trkpt lat="46.27755" lon="6.26956">
        <ele>312.94</ele>
        <time>2020-03-18T14:52:39Z</time>
      </trkpt>
      <trkpt lat="46.27793" lon="6.2699">
        <ele>312.94</ele>
        <time>2020-03-18T14:52:55Z</time>
      </trkpt>
      <trkpt lat="46.27834" lon="6.27033">
        <ele>313.77</ele>
        <time>2020-03-18T14:53:10Z</time>
      </trkpt>
      <trkpt lat="46.27872" lon="6.27078">
        <ele>314.25</ele>
        <time>2020-03-18T14:53:31Z</time>
      </trkpt>
      <trkpt lat="46.27915" lon="6.27136">
        <ele>314.63</ele>
        <time>2020-03-18T14:53:49Z</time>
      </trkpt>
      <trkpt lat="46.27957" lon="6.27188">
        <ele>313.49</ele>
        <time>2020-03-18T14:54:02Z</time>
      </trkpt>
      <trkpt lat="46.28004" lon="6.2724">
        <ele>312.55</ele>
        <time>2020-03-18T14:54:17Z</time>
      </trkpt>
      <trkpt lat="46.2805" lon="6.27287">
        <ele>312.37</ele>
        <time>2020-03-18T14:54:29Z</time>
      </trkpt>
      <trkpt lat="46.28085" lon="6.27335">
        <ele>312.12</ele>
        <time>2020-03-18T14:54:45Z</time>
      </trkpt>
      <trkpt lat="46.28131" lon="6.2738">
        <ele>312</ele>
        <time>2020-03-18T14:54:57Z</time>
      </trkpt>
      <trkpt lat="46.28166" lon="6.27429">
        <ele>311.31</ele>
        <time>2020-03-18T14:55:14Z</time>
      </trkpt>
      <trkpt lat="46.28207" lon="6.27484">
        <ele>311.6</ele>
        <time>2020-03-18T14:55:35Z</time>
      </trkpt>
      <trkpt lat="46.28256" lon="6.27537">
        <ele>311.53</ele>
        <time>2020-03-18T14:55:59Z</time>
      </trkpt>
      <trkpt lat="46.28307" lon="6.27592">
        <ele>311.03</ele>
        <time>2020-03-18T14:56:59Z</time>
      </trkpt>
      <trkpt lat="46.28348" lon="6.27644">
        <ele>311.03</ele>
        <time>2020-03-18T14:57:16Z</time>
      </trkpt>
      <trkpt lat="46.28396" lon="6.27709">
        <ele>311.03</ele>
        <time>2020-03-18T14:58:12Z</time>
      </trkpt>
      <trkpt lat="46.28446" lon="6.27743">
        <ele>311.03</ele>
        <time>2020-03-18T14:58:32Z</time>
      </trkpt>
      <trkpt lat="46.28482" lon="6.27694">
        <ele>311.03</ele>
        <time>2020-03-18T14:58:52Z</time>
      </trkpt>
      <trkpt lat="46.28514" lon="6.27647">
        <ele>308.5</ele>
        <time>2020-03-18T14:59:14Z</time>
      </trkpt>
      <trkpt lat="46.28533" lon="6.27585">
        <ele>307.16</ele>
        <time>2020-03-18T14:59:37Z</time>
      </trkpt>
      <trkpt lat="46.28568" lon="6.27544">
        <ele>306.7</ele>
        <time>2020-03-18T14:59:56Z</time>
      </trkpt>
      <trkpt lat="46.28598" lon="6.27494">
        <ele>306.19</ele>
        <time>2020-03-18T15:00:18Z</time>
      </trkpt>
      <trkpt lat="46.28629" lon="6.27456">
        <ele>306.37</ele>
        <time>2020-03-18T15:01:09Z</time>
      </trkpt>
      <trkpt lat="46.28677" lon="6.27467">
        <ele>306.34</ele>
        <time>2020-03-18T15:01:36Z</time>
      </trkpt>
      <trkpt lat="46.28695" lon="6.27514">
        <ele>306.34</ele>
        <time>2020-03-18T15:02:00Z</time>
      </trkpt>
      <trkpt lat="46.28653" lon="6.27543">
        <ele>306.34</ele>
        <time>2020-03-18T15:02:24Z</time>
      </trkpt>
      <trkpt lat="46.28611" lon="6.27567">
        <ele>306.34</ele>
        <time>2020-03-18T15:02:48Z</time>
      </trkpt>
      <trkpt lat="46.28574" lon="6.27606">
        <ele>306.34</ele>
        <time>2020-03-18T15:03:13Z</time>
      </trkpt>
      <trkpt lat="46.28535" lon="6.27644">
        <ele>306.34</ele>
        <time>2020-03-18T15:03:38Z</time>
      </trkpt>
      <trkpt lat="46.28496" lon="6.27675">
        <ele>306.34</ele>
        <time>2020-03-18T15:04:06Z</time>
      </trkpt>
      <trkpt lat="46.28464" lon="6.27729">
        <ele>309.4</ele>
        <time>2020-03-18T15:04:32Z</time>
      </trkpt>
      <trkpt lat="46.28422" lon="6.27731">
        <ele>311.16</ele>
        <time>2020-03-18T15:05:03Z</time>
      </trkpt>
      <trkpt lat="46.28363" lon="6.2766">
        <ele>310.85</ele>
        <time>2020-03-18T15:06:10Z</time>
      </trkpt>
      <trkpt lat="46.28313" lon="6.27595">
        <ele>311.44</ele>
        <time>2020-03-18T15:06:42Z</time>
      </trkpt>
      <trkpt lat="46.28257" lon="6.27526">
        <ele>311.44</ele>
        <time>2020-03-18T15:07:37Z</time>
      </trkpt>
      <trkpt lat="46.28208" lon="6.27474">
        <ele>311.44</ele>
        <time>2020-03-18T15:08:04Z</time>
      </trkpt>
      <trkpt lat="46.28145" lon="6.27511">
        <ele>311.44</ele>
        <time>2020-03-18T15:09:52Z</time>
      </trkpt>
      <trkpt lat="46.2812" lon="6.27591">
        <ele>311.44</ele>
        <time>2020-03-18T15:10:26Z</time>
      </trkpt>
      <trkpt lat="46.28083" lon="6.27668">
        <ele>311.44</ele>
        <time>2020-03-18T15:10:52Z</time>
      </trkpt>
      <trkpt lat="46.28028" lon="6.27658">
        <ele>311.44</ele>
        <time>2020-03-18T15:11:25Z</time>
      </trkpt>
      <trkpt lat="46.27931" lon="6.2761">
        <ele>315.4</ele>
        <time>2020-03-18T15:12:36Z</time>
      </trkpt>
      <trkpt lat="46.27864" lon="6.27556">
        <ele>315.58</ele>
        <time>2020-03-18T15:13:41Z</time>
      </trkpt>
      <trkpt lat="46.27786" lon="6.2754">
        <ele>315.58</ele>
        <time>2020-03-18T15:15:03Z</time>
      </trkpt>
      <trkpt lat="46.27728" lon="6.27536">
        <ele>315.58</ele>
        <time>2020-03-18T15:15:34Z</time>
      </trkpt>
      <trkpt lat="46.27688" lon="6.2747">
        <ele>315.58</ele>
        <time>2020-03-18T15:16:00Z</time>
      </trkpt>
      <trkpt lat="46.27656" lon="6.27392">
        <ele>315.58</ele>
        <time>2020-03-18T15:16:39Z</time>
      </trkpt>
      <trkpt lat="46.27679" lon="6.27324">
        <ele>315.58</ele>
        <time>2020-03-18T15:16:56Z</time>
      </trkpt>
      <trkpt lat="46.27646" lon="6.27271">
        <ele>315.58</ele>
        <time>2020-03-18T15:17:14Z</time>
      </trkpt>
      <trkpt lat="46.27593" lon="6.27232">
        <ele>315.58</ele>
        <time>2020-03-18T15:17:29Z</time>
      </trkpt>
      <trkpt lat="46.27535" lon="6.27191">
        <ele>315.58</ele>
        <time>2020-03-18T15:17:48Z</time>
      </trkpt>
      <trkpt lat="46.27478" lon="6.27153">
        <ele>315.58</ele>
        <time>2020-03-18T15:18:01Z</time>
      </trkpt>
      <trkpt lat="46.27422" lon="6.27112">
        <ele>315.58</ele>
        <time>2020-03-18T15:18:16Z</time>
      </trkpt>
      <trkpt lat="46.27372" lon="6.27078">
        <ele>315.58</ele>
        <time>2020-03-18T15:18:31Z</time>
      </trkpt>
      <trkpt lat="46.27338" lon="6.27096">
        <ele>315.58</ele>
        <time>2020-03-18T15:18:47Z</time>
      </trkpt>
      <trkpt lat="46.27309" lon="6.2716">
        <ele>315.58</ele>
        <time>2020-03-18T15:19:01Z</time>
      </trkpt>
      <trkpt lat="46.27285" lon="6.27235">
        <ele>315.58</ele>
        <time>2020-03-18T15:19:19Z</time>
      </trkpt>
      <trkpt lat="46.27258" lon="6.27299">
        <ele>315.58</ele>
        <time>2020-03-18T15:19:33Z</time>
      </trkpt>
      <trkpt lat="46.27235" lon="6.27375">
        <ele>315.58</ele>
        <time>2020-03-18T15:19:52Z</time>
      </trkpt>
      <trkpt lat="46.27245" lon="6.27451">
        <ele>315.58</ele>
        <time>2020-03-18T15:20:13Z</time>
      </trkpt>
      <trkpt lat="46.27265" lon="6.27526">
        <ele>315.58</ele>
        <time>2020-03-18T15:20:31Z</time>
      </trkpt>
      <trkpt lat="46.27295" lon="6.27611">
        <ele>320.42</ele>
        <time>2020-03-18T15:20:57Z</time>
      </trkpt>
      <trkpt lat="46.27336" lon="6.27701">
        <ele>321.94</ele>
        <time>2020-03-18T15:21:54Z</time>
      </trkpt>
      <trkpt lat="46.27372" lon="6.27776">
        <ele>321.61</ele>
        <time>2020-03-18T15:22:21Z</time>
      </trkpt>
      <trkpt lat="46.27382" lon="6.27852">
        <ele>321.26</ele>
        <time>2020-03-18T15:22:45Z</time>
      </trkpt>
      <trkpt lat="46.27396" lon="6.27969">
        <ele>321.26</ele>
        <time>2020-03-18T15:27:24Z</time>
      </trkpt>
      <trkpt lat="46.27435" lon="6.28071">
        <ele>321.26</ele>
        <time>2020-03-18T15:29:25Z</time>
      </trkpt>
      <trkpt lat="46.27495" lon="6.28175">
        <ele>321.26</ele>
        <time>2020-03-18T15:32:06Z</time>
      </trkpt>
      <trkpt lat="46.27535" lon="6.28266">
        <ele>321.26</ele>
        <time>2020-03-18T15:33:36Z</time>
      </trkpt>
      <trkpt lat="46.27567" lon="6.28344">
        <ele>321.26</ele>
        <time>2020-03-18T15:34:02Z</time>
      </trkpt>
      <trkpt lat="46.27591" lon="6.2843">
        <ele>321.26</ele>
        <time>2020-03-18T15:34:34Z</time>
      </trkpt>
      <trkpt lat="46.27636" lon="6.28508">
        <ele>321.26</ele>
        <time>2020-03-18T15:35:10Z</time>
      </trkpt>
      <trkpt lat="46.27685" lon="6.28601">
        <ele>321.26</ele>
        <time>2020-03-18T15:36:46Z</time>
      </trkpt>
      <trkpt lat="46.27701" lon="6.28693">
        <ele>321.26</ele>
        <time>2020-03-18T15:37:18Z</time>
      </trkpt>
      <trkpt lat="46.27688" lon="6.28775">
        <ele>321.26</ele>
        <time>2020-03-18T15:37:50Z</time>
      </trkpt>
      <trkpt lat="46.27678" lon="6.28871">
        <ele>321.26</ele>
        <time>2020-03-18T15:38:37Z</time>
      </trkpt>
      <trkpt lat="46.27687" lon="6.28962">
        <ele>321.26</ele>
        <time>2020-03-18T15:39:23Z</time>
      </trkpt>
      <trkpt lat="46.27706" lon="6.28995">
        <ele>321.04</ele>
        <time>2020-03-18T15:41:43Z</time>
      </trkpt>
      <trkpt lat="46.27784" lon="6.29029">
        <ele>320.78</ele>
        <time>2020-03-18T15:43:30Z</time>
      </trkpt>
      <trkpt lat="46.2783" lon="6.29102">
        <ele>320.78</ele>
        <time>2020-03-18T15:45:40Z</time>
      </trkpt>
      <trkpt lat="46.27875" lon="6.2917">
        <ele>320.78</ele>
        <time>2020-03-18T15:46:37Z</time>
      </trkpt>
      <trkpt lat="46.27927" lon="6.29215">
        <ele>320.78</ele>
        <time>2020-03-18T15:47:04Z</time>
      </trkpt>
      <trkpt lat="46.27983" lon="6.29268">
        <ele>320.78</ele>
        <time>2020-03-18T15:48:32Z</time>
      </trkpt>
      <trkpt lat="46.28013" lon="6.29328">
        <ele>316.59</ele>
        <time>2020-03-18T15:50:09Z</time>
      </trkpt>
      <trkpt lat="46.28065" lon="6.29352">
        <ele>318.21</ele>
        <time>2020-03-18T15:54:09Z</time>
      </trkpt>
      <trkpt lat="46.28131" lon="6.29384">
        <ele>318.21</ele>
        <time>2020-03-18T15:55:03Z</time>
      </trkpt>
      <trkpt lat="46.28186" lon="6.29431">
        <ele>318.21</ele>
        <time>2020-03-18T15:55:33Z</time>
      </trkpt>
      <trkpt lat="46.28246" lon="6.29459">
        <ele>318.21</ele>
        <time>2020-03-18T15:56:36Z</time>
      </trkpt>
      <trkpt lat="46.28307" lon="6.29477">
        <ele>320.67</ele>
        <time>2020-03-18T15:57:17Z</time>
      </trkpt>
      <trkpt lat="46.28366" lon="6.2951">
        <ele>320.64</ele>
        <time>2020-03-18T15:57:42Z</time>
      </trkpt>
      <trkpt lat="46.28428" lon="6.29542">
        <ele>320.1</ele>
        <time>2020-03-18T15:58:06Z</time>
      </trkpt>
      <trkpt lat="46.28473" lon="6.29519">
        <ele>319.29</ele>
        <time>2020-03-18T15:58:31Z</time>
      </trkpt>
      <trkpt lat="46.2852" lon="6.29504">
        <ele>319.23</ele>
        <time>2020-03-18T15:58:59Z</time>
      </trkpt>
      <trkpt lat="46.28567" lon="6.29473">
        <ele>319.39</ele>
        <time>2020-03-18T15:59:22Z</time>
      </trkpt>
      <trkpt lat="46.28597" lon="6.29452">
        <ele>319.39</ele>
        <time>2020-03-18T16:00:10Z</time>
      </trkpt>
      <trkpt lat="46.28559" lon="6.29411">
        <ele>319.39</ele>
        <time>2020-03-18T16:00:26Z</time>
      </trkpt>
      <trkpt lat="46.28535" lon="6.29356">
        <ele>319.39</ele>
        <time>2020-03-18T16:00:44Z</time>
      </trkpt>
      <trkpt lat="46.28515" lon="6.29292">
        <ele>319.39</ele>
        <time>2020-03-18T16:01:01Z</time>
      </trkpt>
      <trkpt lat="46.28491" lon="6.29234">
        <ele>319.39</ele>
        <time>2020-03-18T16:01:19Z</time>
      </trkpt>
      <trkpt lat="46.28449" lon="6.29204">
        <ele>319.39</ele>
        <time>2020-03-18T16:01:37Z</time>
      </trkpt>
      <trkpt lat="46.2839" lon="6.29176">
        <ele>319.39</ele>
        <time>2020-03-18T16:02:21Z</time>
      </trkpt>
      <trkpt lat="46.28355" lon="6.2913">
        <ele>319.39</ele>
        <time>2020-03-18T16:03:17Z</time>
      </trkpt>
      <trkpt lat="46.28308" lon="6.29094">
        <ele>319.39</ele>
        <time>2020-03-18T16:03:37Z</time>
      </trkpt>
      <trkpt lat="46.28265" lon="6.29053">
        <ele>319.39</ele>
        <time>2020-03-18T16:03:57Z</time>
      </trkpt>
      <trkpt lat="46.28225" lon="6.29018">
        <ele>319.39</ele>
        <time>2020-03-18T16:04:14Z</time>
      </trkpt>
      <trkpt lat="46.28184" lon="6.28988">
        <ele>319.39</ele>
        <time>2020-03-18T16:04:33Z</time>
      </trkpt>
      <trkpt lat="46.28144" lon="6.28941">
        <ele>319.39</ele>
        <time>2020-03-18T16:05:12Z</time>
      </trkpt>
      <trkpt lat="46.28097" lon="6.28899">
        <ele>319.39</ele>
        <time>2020-03-18T16:07:07Z</time>
      </trkpt>
      <trkpt lat="46.2806" lon="6.28849">
        <ele>319.39</ele>
        <time>2020-03-18T16:08:11Z</time>
      </trkpt>
      <trkpt lat="46.28028" lon="6.28789">
        <ele>319.39</ele>
        <time>2020-03-18T16:09:13Z</time>
      </trkpt>
      <trkpt lat="46.28006" lon="6.28716">
        <ele>319.39</ele>
        <time>2020-03-18T16:09:44Z</time>
      </trkpt>
      <trkpt lat="46.28035" lon="6.28639">
        <ele>319.39</ele>
        <time>2020-03-18T16:10:33Z</time>
      </trkpt>
      <trkpt lat="46.28033" lon="6.2858">
        <ele>319.39</ele>
        <time>2020-03-18T16:11:48Z</time>
      </trkpt>
      <trkpt lat="46.27996" lon="6.28521">
        <ele>319.39</ele>
        <time>2020-03-18T16:12:13Z</time>
      </trkpt>
      <trkpt lat="46.27965" lon="6.28453">
        <ele>319.39</ele>
        <time>2020-03-18T16:12:40Z</time>
      </trkpt>
      <trkpt lat="46.27942" lon="6.28375">
        <ele>319.39</ele>
        <time>2020-03-18T16:14:03Z</time>
      </trkpt>
      <trkpt lat="46.27913" lon="6.28312">
        <ele>319.39</ele>
        <time>2020-03-18T16:14:27Z</time>
      </trkpt>
      <trkpt lat="46.27893" lon="6.28236">
        <ele>319.39</ele>
        <time>2020-03-18T16:14:50Z</time>
      </trkpt>
      <trkpt lat="46.27874" lon="6.28156">
        <ele>319.39</ele>
        <time>2020-03-18T16:15:14Z</time>
      </trkpt>
      <trkpt lat="46.27856" lon="6.28083">
        <ele>319.39</ele>
        <time>2020-03-18T16:15:37Z</time>
      </trkpt>
      <trkpt lat="46.27826" lon="6.28021">
        <ele>319.39</ele>
        <time>2020-03-18T16:15:55Z</time>
      </trkpt>
      <trkpt lat="46.2779" lon="6.27973">
        <ele>319.39</ele>
        <time>2020-03-18T16:16:15Z</time>
      </trkpt>
      <trkpt lat="46.27756" lon="6.27912">
        <ele>319.39</ele>
        <time>2020-03-18T16:16:36Z</time>
      </trkpt>
      <trkpt lat="46.27725" lon="6.27849">
        <ele>319.39</ele>
        <time>2020-03-18T16:16:57Z</time>
      </trkpt>
      <trkpt lat="46.27708" lon="6.27775">
        <ele>319.39</ele>
        <time>2020-03-18T16:17:15Z</time>
      </trkpt>
      <trkpt lat="46.2769" lon="6.27706">
        <ele>319.39</ele>
        <time>2020-03-18T16:17:29Z</time>
      </trkpt>
      <trkpt lat="46.27676" lon="6.27627">
        <ele>319.39</ele>
        <time>2020-03-18T16:17:48Z</time>
      </trkpt>
      <trkpt lat="46.27662" lon="6.27553">
        <ele>319.39</ele>
        <time>2020-03-18T16:18:08Z</time>
      </trkpt>
      <trkpt lat="46.27652" lon="6.27488">
        <ele>319.39</ele>
        <time>2020-03-18T16:18:25Z</time>
      </trkpt>
      <trkpt lat="46.27646" lon="6.27417">
        <ele>319.39</ele>
        <time>2020-03-18T16:18:47Z</time>
      </trkpt>
      <trkpt lat="46.27658" lon="6.27341">
        <ele>319.39</ele>
        <time>2020-03-18T16:19:19Z</time>
      </trkpt>
      <trkpt lat="46.2768" lon="6.27268">
        <ele>319.39</ele>
        <time>2020-03-18T16:19:39Z</time>
      </trkpt>
      <trkpt lat="46.27705" lon="6.27194">
        <ele>319.39</ele>
        <time>2020-03-18T16:19:50Z</time>
      </trkpt>
      <trkpt lat="46.27734" lon="6.27132">
        <ele>319.39</ele>
        <time>2020-03-18T16:20:01Z</time>
      </trkpt>
      <trkpt lat="46.27744" lon="6.27061">
        <ele>319.39</ele>
        <time>2020-03-18T16:20:15Z</time>
      </trkpt>
      <trkpt lat="46.27749" lon="6.26988">
        <ele>319.39</ele>
        <time>2020-03-18T16:20:25Z</time>
      </trkpt>
      <trkpt lat="46.27747" lon="6.26916">
        <ele>314.03</ele>
        <time>2020-03-18T16:20:34Z</time>
      </trkpt>
      <trkpt lat="46.27749" lon="6.26856">
        <ele>311.89</ele>
        <time>2020-03-18T16:20:46Z</time>
      </trkpt>
      <trkpt lat="46.27778" lon="6.26797">
        <ele>311.23</ele>
        <time>2020-03-18T16:20:56Z</time>
      </trkpt>
      <trkpt lat="46.27804" lon="6.26738">
        <ele>310.24</ele>
        <time>2020-03-18T16:21:06Z</time>
      </trkpt>
      <trkpt lat="46.27825" lon="6.26677">
        <ele>309.21</ele>
        <time>2020-03-18T16:21:17Z</time>
      </trkpt>
      <trkpt lat="46.27844" lon="6.2662">
        <ele>308.39</ele>
        <time>2020-03-18T16:21:27Z</time>
      </trkpt>
      <trkpt lat="46.27865" lon="6.26562">
        <ele>307.16</ele>
        <time>2020-03-18T16:21:43Z</time>
      </trkpt>
      <trkpt lat="46.27888" lon="6.26501">
        <ele>305.5</ele>
        <time>2020-03-18T16:21:56Z</time>
      </trkpt>
      <trkpt lat="46.27914" lon="6.2645">
        <ele>303.65</ele>
        <time>2020-03-18T16:22:14Z</time>
      </trkpt>
      <trkpt lat="46.27896" lon="6.26482">
        <ele>303.42</ele>
        <time>2020-03-18T16:23:06Z</time>
      </trkpt>
      <trkpt lat="46.27873" lon="6.26542">
        <ele>304.49</ele>
        <time>2020-03-18T16:23:21Z</time>
      </trkpt>
      <trkpt lat="46.27853" lon="6.26601">
        <ele>306.45</ele>
        <time>2020-03-18T16:23:41Z</time>
      </trkpt>
      <trkpt lat="46.27832" lon="6.26658">
        <ele>307.45</ele>
        <time>2020-03-18T16:24:01Z</time>
      </trkpt>
      <trkpt lat="46.27812" lon="6.26717">
        <ele>308.84</ele>
        <time>2020-03-18T16:24:18Z</time>
      </trkpt>
      <trkpt lat="46.27788" lon="6.26776">
        <ele>309.43</ele>
        <time>2020-03-18T16:24:35Z</time>
      </trkpt>
      <trkpt lat="46.27764" lon="6.2683">
        <ele>310.29</ele>
        <time>2020-03-18T16:24:51Z</time>
      </trkpt>
      <trkpt lat="46.2773" lon="6.26864">
        <ele>311.23</ele>
        <time>2020-03-18T16:25:08Z</time>
      </trkpt>
      <trkpt lat="46.27706" lon="6.26801">
        <ele>311.21</ele>
        <time>2020-03-18T16:25:20Z</time>
      </trkpt>
      <trkpt lat="46.27685" lon="6.26738">
        <ele>310.84</ele>
        <time>2020-03-18T16:25:32Z</time>
      </trkpt>
      <trkpt lat="46.27652" lon="6.26693">
        <ele>310.49</ele>
        <time>2020-03-18T16:25:43Z</time>
      </trkpt>
      <trkpt lat="46.27614" lon="6.26658">
        <ele>309.9</ele>
        <time>2020-03-18T16:25:56Z</time>
      </trkpt>
      <trkpt lat="46.27576" lon="6.2662">
        <ele>309.57</ele>
        <time>2020-03-18T16:26:12Z</time>
      </trkpt>
      <trkpt lat="46.27535" lon="6.26584">
        <ele>310.07</ele>
        <time>2020-03-18T16:26:25Z</time>
      </trkpt>
      <trkpt lat="46.27497" lon="6.26548">
        <ele>310.21</ele>
        <time>2020-03-18T16:26:37Z</time>
      </trkpt>
      <trkpt lat="46.27459" lon="6.2651">
        <ele>310.39</ele>
        <time>2020-03-18T16:26:50Z</time>
      </trkpt>
      <trkpt lat="46.27429" lon="6.2646">
        <ele>310.39</ele>
        <time>2020-03-18T16:27:01Z</time>
      </trkpt>
      <trkpt lat="46.27408" lon="6.264">
        <ele>310.39</ele>
        <time>2020-03-18T16:27:13Z</time>
      </trkpt>
      <trkpt lat="46.27385" lon="6.26337">
        <ele>310.39</ele>
        <time>2020-03-18T16:27:26Z</time>
      </trkpt>
      <trkpt lat="46.27362" lon="6.26281">
        <ele>310.39</ele>
        <time>2020-03-18T16:27:36Z</time>
      </trkpt>
      <trkpt lat="46.27375" lon="6.26218">
        <ele>310.39</ele>
        <time>2020-03-18T16:27:48Z</time>
      </trkpt>
      <trkpt lat="46.274" lon="6.26161">
        <ele>310.39</ele>
        <time>2020-03-18T16:27:59Z</time>
      </trkpt>
      <trkpt lat="46.27423" lon="6.26104">
        <ele>310.39</ele>
        <time>2020-03-18T16:28:15Z</time>
      </trkpt>
      <trkpt lat="46.27437" lon="6.26042">
        <ele>310.39</ele>
        <time>2020-03-18T16:28:27Z</time>
      </trkpt>
      <trkpt lat="46.27418" lon="6.25981">
        <ele>310.39</ele>
        <time>2020-03-18T16:28:41Z</time>
      </trkpt>
      <trkpt lat="46.27376" lon="6.25959">
        <ele>310.39</ele>
        <time>2020-03-18T16:28:54Z</time>
      </trkpt>
      <trkpt lat="46.27332" lon="6.25928">
        <ele>310.39</ele>
        <time>2020-03-18T16:29:05Z</time>
      </trkpt>
      <trkpt lat="46.27291" lon="6.25895">
        <ele>310.39</ele>
        <time>2020-03-18T16:29:16Z</time>
      </trkpt>
      <trkpt lat="46.2725" lon="6.25867">
        <ele>310.39</ele>
        <time>2020-03-18T16:29:27Z</time>
      </trkpt>
      <trkpt lat="46.27207" lon="6.25835">
        <ele>310.39</ele>
        <time>2020-03-18T16:29:40Z</time>
      </trkpt>
      <trkpt lat="46.27166" lon="6.25804">
        <ele>310.39</ele>
        <time>2020-03-18T16:29:52Z</time>
      </trkpt>
      <trkpt lat="46.27122" lon="6.25781">
        <ele>310.39</ele>
        <time>2020-03-18T16:30:03Z</time>
      </trkpt>
      <trkpt lat="46.271" lon="6.25831">
        <ele>310.39</ele>
        <time>2020-03-18T16:30:17Z</time>
      </trkpt>
      <trkpt lat="46.2708" lon="6.2589">
        <ele>310.39</ele>
        <time>2020-03-18T16:30:28Z</time>
      </trkpt>
      <trkpt lat="46.2704" lon="6.25907">
        <ele>310.39</ele>
        <time>2020-03-18T16:30:44Z</time>
      </trkpt>
      <trkpt lat="46.27011" lon="6.25921">
        <ele>310.39</ele>
        <time>2020-03-18T16:31:02Z</time>
      </trkpt>
      <trkpt lat="46.2699" lon="6.25976">
        <ele>310.39</ele>
        <time>2020-03-18T16:31:21Z</time>
      </trkpt>
      <trkpt lat="46.26955" lon="6.26008">
        <ele>310.39</ele>
        <time>2020-03-18T16:31:36Z</time>
      </trkpt>
      <trkpt lat="46.26936" lon="6.26071">
        <ele>310.39</ele>
        <time>2020-03-18T16:31:47Z</time>
      </trkpt>
      <trkpt lat="46.26925" lon="6.26135">
        <ele>310.39</ele>
        <time>2020-03-18T16:31:59Z</time>
      </trkpt>
      <trkpt lat="46.26892" lon="6.26181">
        <ele>310.39</ele>
        <time>2020-03-18T16:32:11Z</time>
      </trkpt>
      <trkpt lat="46.26874" lon="6.26244">
        <ele>310.39</ele>
        <time>2020-03-18T16:32:26Z</time>
      </trkpt>
      <trkpt lat="46.26829" lon="6.26233">
        <ele>310.39</ele>
        <time>2020-03-18T16:32:40Z</time>
      </trkpt>
      <trkpt lat="46.26823" lon="6.26247">
        <ele>315.69</ele>
        <time>2020-03-18T16:33:13Z</time>
      </trkpt>
      <trkpt lat="46.26807" lon="6.25708">
        <ele>312.36</ele>
        <time>2020-03-18T18:12:51Z</time>
      </trkpt>
    </trkseg>
  </trk>
</gpx>